<?xml version='1.0' encoding='utf-8'?>
<gpx xmlns="http://www.topografix.com/GPX/1/1" xmlns:xsi="http://www.w3.org/2001/XMLSchema-instance" version="v1.1.5" creator="iTravel Tech Inc. - http://www.itravel-tech.com" xsi:schemaLocation="http://www.topografix.com/GPX/1/1 http://www.topografix.com/GPX/1/1/gpx.xsd http://www.topografix.com/GPX/gpx_overlay/0/3 http://www.topografix.com/GPX/gpx_overlay/0/3/gpx_overlay.xsd http://www.topografix.com/GPX/gpx_modified/0/1 http://www.topografix.com/GPX/gpx_modified/0/1/gpx_modified.xsd">
<trk>
<name>Holux2012/05/01_12:09</name>
<trkseg>
<trkpt lat="43.158604" lon="19.301077">
<ele>884.9</ele>
<time>2012-05-01T09:09:07Z</time>
<desc>lat.=43.158604, lon.=19.301077, Alt.=113.524475m. Speed=3.636000m/h.</desc>
<speed>1.010000</speed>
</trkpt>
<trkpt lat="43.158665" lon="19.301252">
<ele>890.0</ele>
<time>2012-05-01T09:09:17Z</time>
<desc>lat.=43.158665, lon.=19.301252, Alt.=113.727600m. Speed=7.236000m/h.</desc>
<speed>2.010000</speed>
</trkpt>
<trkpt lat="43.158966" lon="19.293825">
<ele>842.2</ele>
<time>2012-05-01T09:09:24Z</time>
<desc>lat.=43.158966, lon.=19.293825, Alt.=847.852051m. Speed=5.436000m/h.</desc>
<speed>1.510000</speed>
</trkpt>
<trkpt lat="43.158966" lon="19.294035">
<ele>844.1</ele>
<time>2012-05-01T09:09:34Z</time>
<desc>lat.=43.158966, lon.=19.294035, Alt.=825.961426m. Speed=0.792000m/h.</desc>
<speed>0.220000</speed>
</trkpt>
<trkpt lat="43.158669" lon="19.293930">
<ele>841.7</ele>
<time>2012-05-01T09:09:44Z</time>
<desc>lat.=43.158669, lon.=19.293930, Alt.=829.070801m. Speed=22.139999m/h.</desc>
<speed>6.150000</speed>
</trkpt>
<trkpt lat="43.158127" lon="19.294188">
<ele>832.2</ele>
<time>2012-05-01T09:09:54Z</time>
<desc>lat.=43.158127, lon.=19.294188, Alt.=830.336426m. Speed=23.868000m/h.</desc>
<speed>6.630000</speed>
</trkpt>
<trkpt lat="43.157730" lon="19.294771">
<ele>827.9</ele>
<time>2012-05-01T09:10:04Z</time>
<desc>lat.=43.157730, lon.=19.294771, Alt.=828.461426m. Speed=21.996000m/h.</desc>
<speed>6.110000</speed>
</trkpt>
<trkpt lat="43.157337" lon="19.295940">
<ele>816.8</ele>
<time>2012-05-01T09:10:19Z</time>
<desc>lat.=43.157337, lon.=19.295940, Alt.=823.539551m. Speed=29.952000m/h.</desc>
<speed>8.320000</speed>
</trkpt>
<trkpt lat="43.156593" lon="19.296412">
<ele>819.4</ele>
<time>2012-05-01T09:10:29Z</time>
<desc>lat.=43.156593, lon.=19.296412, Alt.=817.164551m. Speed=32.327999m/h.</desc>
<speed>8.980000</speed>
</trkpt>
<trkpt lat="43.155781" lon="19.296343">
<ele>813.5</ele>
<time>2012-05-01T09:10:39Z</time>
<desc>lat.=43.155781, lon.=19.296343, Alt.=810.664551m. Speed=34.883999m/h.</desc>
<speed>9.690000</speed>
</trkpt>
<trkpt lat="43.154083" lon="19.295462">
<ele>794.8</ele>
<time>2012-05-01T09:10:59Z</time>
<desc>lat.=43.154083, lon.=19.295462, Alt.=797.164551m. Speed=33.875999m/h.</desc>
<speed>9.410000</speed>
</trkpt>
<trkpt lat="43.153015" lon="19.296120">
<ele>787.8</ele>
<time>2012-05-01T09:11:14Z</time>
<desc>lat.=43.153015, lon.=19.296120, Alt.=787.242676m. Speed=35.532001m/h.</desc>
<speed>9.870000</speed>
</trkpt>
<trkpt lat="43.152573" lon="19.296198">
<ele>789.8</ele>
<time>2012-05-01T09:11:19Z</time>
<desc>lat.=43.152573, lon.=19.296198, Alt.=782.930176m. Speed=36.035999m/h.</desc>
<speed>10.010000</speed>
</trkpt>
<trkpt lat="43.151184" lon="19.295967">
<ele>765.1</ele>
<time>2012-05-01T09:11:34Z</time>
<desc>lat.=43.151184, lon.=19.295967, Alt.=772.852051m. Speed=37.152000m/h.</desc>
<speed>10.320000</speed>
</trkpt>
<trkpt lat="43.150806" lon="19.295750">
<ele>719.2</ele>
<time>2012-05-01T09:11:39Z</time>
<desc>lat.=43.150806, lon.=19.295750, Alt.=770.117676m. Speed=27.396000m/h.</desc>
<speed>7.610000</speed>
</trkpt>
<trkpt lat="43.149837" lon="19.294641">
<ele>715.1</ele>
<time>2012-05-01T09:11:59Z</time>
<desc>lat.=43.149837, lon.=19.294641, Alt.=771.680176m. Speed=25.920000m/h.</desc>
<speed>7.200000</speed>
</trkpt>
<trkpt lat="43.148827" lon="19.292892">
<ele>739.8</ele>
<time>2012-05-01T09:12:34Z</time>
<desc>lat.=43.148827, lon.=19.292892, Alt.=773.773926m. Speed=13.968000m/h.</desc>
<speed>3.880000</speed>
</trkpt>
<trkpt lat="43.148628" lon="19.291943">
<ele>772.1</ele>
<time>2012-05-01T09:12:59Z</time>
<desc>lat.=43.148628, lon.=19.291943, Alt.=783.727051m. Speed=12.780000m/h.</desc>
<speed>3.550000</speed>
</trkpt>
<trkpt lat="43.148941" lon="19.290054">
<ele>784.1</ele>
<time>2012-05-01T09:13:49Z</time>
<desc>lat.=43.148941, lon.=19.290054, Alt.=799.883301m. Speed=10.728000m/h.</desc>
<speed>2.980000</speed>
</trkpt>
<trkpt lat="43.148609" lon="19.289518">
<ele>790.4</ele>
<time>2012-05-01T09:14:14Z</time>
<desc>lat.=43.148609, lon.=19.289518, Alt.=802.164551m. Speed=7.560000m/h.</desc>
<speed>2.100000</speed>
</trkpt>
<trkpt lat="43.148422" lon="19.289581">
<ele>795.4</ele>
<time>2012-05-01T09:14:24Z</time>
<desc>lat.=43.148422, lon.=19.289581, Alt.=805.039551m. Speed=9.828000m/h.</desc>
<speed>2.730000</speed>
</trkpt>
<trkpt lat="43.148418" lon="19.290445">
<ele>792.9</ele>
<time>2012-05-01T09:14:54Z</time>
<desc>lat.=43.148418, lon.=19.290445, Alt.=809.320801m. Speed=8.568000m/h.</desc>
<speed>2.380000</speed>
</trkpt>
<trkpt lat="43.148159" lon="19.290718">
<ele>791.9</ele>
<time>2012-05-01T09:15:54Z</time>
<desc>lat.=43.148159, lon.=19.290718, Alt.=811.258301m. Speed=0.036000m/h.</desc>
<speed>0.010000</speed>
</trkpt>
<trkpt lat="43.148376" lon="19.290503">
<ele>792.7</ele>
<time>2012-05-01T09:17:09Z</time>
<desc>lat.=43.148376, lon.=19.290503, Alt.=808.898926m. Speed=11.160000m/h.</desc>
<speed>3.100000</speed>
</trkpt>
<trkpt lat="43.148449" lon="19.289471">
<ele>795.1</ele>
<time>2012-05-01T09:17:29Z</time>
<desc>lat.=43.148449, lon.=19.289471, Alt.=802.852051m. Speed=13.212000m/h.</desc>
<speed>3.670000</speed>
</trkpt>
<trkpt lat="43.148918" lon="19.289873">
<ele>783.9</ele>
<time>2012-05-01T09:17:44Z</time>
<desc>lat.=43.148918, lon.=19.289873, Alt.=798.289551m. Speed=10.008000m/h.</desc>
<speed>2.780000</speed>
</trkpt>
<trkpt lat="43.149521" lon="19.289465">
<ele>784.7</ele>
<time>2012-05-01T09:18:04Z</time>
<desc>lat.=43.149521, lon.=19.289465, Alt.=804.477051m. Speed=8.604000m/h.</desc>
<speed>2.390000</speed>
</trkpt>
<trkpt lat="43.150826" lon="19.289673">
<ele>788.3</ele>
<time>2012-05-01T09:18:54Z</time>
<desc>lat.=43.150826, lon.=19.289673, Alt.=809.961426m. Speed=9.684000m/h.</desc>
<speed>2.690000</speed>
</trkpt>
<trkpt lat="43.151276" lon="19.289337">
<ele>798.0</ele>
<time>2012-05-01T09:19:14Z</time>
<desc>lat.=43.151276, lon.=19.289337, Alt.=812.023926m. Speed=9.900000m/h.</desc>
<speed>2.750000</speed>
</trkpt>
<trkpt lat="43.151978" lon="19.288055">
<ele>810.6</ele>
<time>2012-05-01T09:20:04Z</time>
<desc>lat.=43.151978, lon.=19.288055, Alt.=823.367676m. Speed=9.360000m/h.</desc>
<speed>2.600000</speed>
</trkpt>
<trkpt lat="43.151978" lon="19.287266">
<ele>818.2</ele>
<time>2012-05-01T09:20:29Z</time>
<desc>lat.=43.151978, lon.=19.287266, Alt.=826.836426m. Speed=9.144000m/h.</desc>
<speed>2.540000</speed>
</trkpt>
<trkpt lat="43.151634" lon="19.286434">
<ele>829.7</ele>
<time>2012-05-01T09:20:59Z</time>
<desc>lat.=43.151634, lon.=19.286434, Alt.=830.336426m. Speed=9.000000m/h.</desc>
<speed>2.500000</speed>
</trkpt>
<trkpt lat="43.151474" lon="19.285490">
<ele>828.1</ele>
<time>2012-05-01T09:21:29Z</time>
<desc>lat.=43.151474, lon.=19.285490, Alt.=833.023926m. Speed=9.936000m/h.</desc>
<speed>2.760000</speed>
</trkpt>
<trkpt lat="43.151840" lon="19.282547">
<ele>842.3</ele>
<time>2012-05-01T09:23:04Z</time>
<desc>lat.=43.151840, lon.=19.282547, Alt.=855.164551m. Speed=7.272000m/h.</desc>
<speed>2.020000</speed>
</trkpt>
<trkpt lat="43.151531" lon="19.280724">
<ele>848.8</ele>
<time>2012-05-01T09:23:44Z</time>
<desc>lat.=43.151531, lon.=19.280724, Alt.=850.961426m. Speed=16.020000m/h.</desc>
<speed>4.450000</speed>
</trkpt>
<trkpt lat="43.151642" lon="19.278246">
<ele>857.1</ele>
<time>2012-05-01T09:24:34Z</time>
<desc>lat.=43.151642, lon.=19.278246, Alt.=850.180176m. Speed=14.544000m/h.</desc>
<speed>4.040000</speed>
</trkpt>
<trkpt lat="43.152164" lon="19.277422">
<ele>838.8</ele>
<time>2012-05-01T09:24:59Z</time>
<desc>lat.=43.152164, lon.=19.277422, Alt.=853.180176m. Speed=11.448000m/h.</desc>
<speed>3.180000</speed>
</trkpt>
<trkpt lat="43.152012" lon="19.277157">
<ele>853.2</ele>
<time>2012-05-01T09:25:09Z</time>
<desc>lat.=43.152012, lon.=19.277157, Alt.=853.664551m. Speed=11.520000m/h.</desc>
<speed>3.200000</speed>
</trkpt>
<trkpt lat="43.151485" lon="19.277998">
<ele>876.3</ele>
<time>2012-05-01T09:25:44Z</time>
<desc>lat.=43.151485, lon.=19.277998, Alt.=859.383301m. Speed=7.560000m/h.</desc>
<speed>2.100000</speed>
</trkpt>
<trkpt lat="43.151104" lon="19.280167">
<ele>891.3</ele>
<time>2012-05-01T09:27:04Z</time>
<desc>lat.=43.151104, lon.=19.280167, Alt.=867.320801m. Speed=6.372000m/h.</desc>
<speed>1.770000</speed>
</trkpt>
<trkpt lat="43.151146" lon="19.282318">
<ele>895.4</ele>
<time>2012-05-01T09:28:19Z</time>
<desc>lat.=43.151146, lon.=19.282318, Alt.=871.961426m. Speed=5.904000m/h.</desc>
<speed>1.640000</speed>
</trkpt>
<trkpt lat="43.150566" lon="19.283571">
<ele>905.4</ele>
<time>2012-05-01T09:29:14Z</time>
<desc>lat.=43.150566, lon.=19.283571, Alt.=879.227051m. Speed=6.804000m/h.</desc>
<speed>1.890000</speed>
</trkpt>
<trkpt lat="43.150398" lon="19.284475">
<ele>911.1</ele>
<time>2012-05-01T09:29:49Z</time>
<desc>lat.=43.150398, lon.=19.284475, Alt.=884.305176m. Speed=6.696000m/h.</desc>
<speed>1.860000</speed>
</trkpt>
<trkpt lat="43.150398" lon="19.286236">
<ele>911.9</ele>
<time>2012-05-01T09:30:49Z</time>
<desc>lat.=43.150398, lon.=19.286236, Alt.=890.836426m. Speed=10.116000m/h.</desc>
<speed>2.810000</speed>
</trkpt>
<trkpt lat="43.150650" lon="19.287401">
<ele>896.8</ele>
<time>2012-05-01T09:31:34Z</time>
<desc>lat.=43.150650, lon.=19.287401, Alt.=903.664551m. Speed=8.460000m/h.</desc>
<speed>2.350000</speed>
</trkpt>
<trkpt lat="43.150284" lon="19.286015">
<ele>922.9</ele>
<time>2012-05-01T09:32:19Z</time>
<desc>lat.=43.150284, lon.=19.286015, Alt.=907.930176m. Speed=10.656000m/h.</desc>
<speed>2.960000</speed>
</trkpt>
<trkpt lat="43.150101" lon="19.284317">
<ele>938.8</ele>
<time>2012-05-01T09:33:09Z</time>
<desc>lat.=43.150101, lon.=19.284317, Alt.=915.758301m. Speed=9.864000m/h.</desc>
<speed>2.740000</speed>
</trkpt>
<trkpt lat="43.150425" lon="19.281717">
<ele>948.4</ele>
<time>2012-05-01T09:34:19Z</time>
<desc>lat.=43.150425, lon.=19.281717, Alt.=930.430176m. Speed=10.728000m/h.</desc>
<speed>2.980000</speed>
</trkpt>
<trkpt lat="43.150070" lon="19.279745">
<ele>959.7</ele>
<time>2012-05-01T09:35:19Z</time>
<desc>lat.=43.150070, lon.=19.279745, Alt.=942.992676m. Speed=10.008000m/h.</desc>
<speed>2.780000</speed>
</trkpt>
<trkpt lat="43.150089" lon="19.278595">
<ele>958.4</ele>
<time>2012-05-01T09:35:54Z</time>
<desc>lat.=43.150089, lon.=19.278595, Alt.=953.320801m. Speed=4.392000m/h.</desc>
<speed>1.220000</speed>
</trkpt>
<trkpt lat="43.149921" lon="19.278330">
<ele>967.8</ele>
<time>2012-05-01T09:39:59Z</time>
<desc>lat.=43.149921, lon.=19.278330, Alt.=954.414551m. Speed=3.312000m/h.</desc>
<speed>0.920000</speed>
</trkpt>
<trkpt lat="43.149891" lon="19.276957">
<ele>972.4</ele>
<time>2012-05-01T09:42:14Z</time>
<desc>lat.=43.149891, lon.=19.276957, Alt.=972.570801m. Speed=2.052000m/h.</desc>
<speed>0.570000</speed>
</trkpt>
<trkpt lat="43.149715" lon="19.276611">
<ele>979.2</ele>
<time>2012-05-01T09:43:09Z</time>
<desc>lat.=43.149715, lon.=19.276611, Alt.=977.164551m. Speed=2.700000m/h.</desc>
<speed>0.750000</speed>
</trkpt>
<trkpt lat="43.150043" lon="19.275724">
<ele>984.6</ele>
<time>2012-05-01T09:44:34Z</time>
<desc>lat.=43.150043, lon.=19.275724, Alt.=990.773926m. Speed=3.672000m/h.</desc>
<speed>1.020000</speed>
</trkpt>
<trkpt lat="43.149910" lon="19.275372">
<ele>992.8</ele>
<time>2012-05-01T09:45:19Z</time>
<desc>lat.=43.149910, lon.=19.275372, Alt.=1000.117676m. Speed=3.384000m/h.</desc>
<speed>0.940000</speed>
</trkpt>
<trkpt lat="43.149422" lon="19.275276">
<ele>998.6</ele>
<time>2012-05-01T09:47:29Z</time>
<desc>lat.=43.149422, lon.=19.275276, Alt.=1007.633301m. Speed=5.868000m/h.</desc>
<speed>1.630000</speed>
</trkpt>
<trkpt lat="43.148628" lon="19.275782">
<ele>1004.7</ele>
<time>2012-05-01T09:48:04Z</time>
<desc>lat.=43.148628, lon.=19.275782, Alt.=1010.164551m. Speed=8.928000m/h.</desc>
<speed>2.480000</speed>
</trkpt>
<trkpt lat="43.148415" lon="19.276318">
<ele>1013.1</ele>
<time>2012-05-01T09:48:24Z</time>
<desc>lat.=43.148415, lon.=19.276318, Alt.=1014.273926m. Speed=7.056000m/h.</desc>
<speed>1.960000</speed>
</trkpt>
<trkpt lat="43.148499" lon="19.276762">
<ele>1013.9</ele>
<time>2012-05-01T09:48:49Z</time>
<desc>lat.=43.148499, lon.=19.276762, Alt.=1022.602051m. Speed=5.004000m/h.</desc>
<speed>1.390000</speed>
</trkpt>
<trkpt lat="43.148373" lon="19.277128">
<ele>1019.3</ele>
<time>2012-05-01T09:49:29Z</time>
<desc>lat.=43.148373, lon.=19.277128, Alt.=1027.422852m. Speed=3.204000m/h.</desc>
<speed>0.890000</speed>
</trkpt>
<trkpt lat="43.148148" lon="19.276819">
<ele>1024.5</ele>
<time>2012-05-01T09:49:59Z</time>
<desc>lat.=43.148148, lon.=19.276819, Alt.=1031.172852m. Speed=6.768000m/h.</desc>
<speed>1.880000</speed>
</trkpt>
<trkpt lat="43.147850" lon="19.276848">
<ele>1035.6</ele>
<time>2012-05-01T09:50:19Z</time>
<desc>lat.=43.147850, lon.=19.276848, Alt.=1037.579102m. Speed=4.860000m/h.</desc>
<speed>1.350000</speed>
</trkpt>
<trkpt lat="43.147629" lon="19.276361">
<ele>1045.3</ele>
<time>2012-05-01T09:51:04Z</time>
<desc>lat.=43.147629, lon.=19.276361, Alt.=1044.422852m. Speed=5.148000m/h.</desc>
<speed>1.430000</speed>
</trkpt>
<trkpt lat="43.148174" lon="19.274313">
<ele>1044.9</ele>
<time>2012-05-01T09:52:19Z</time>
<desc>lat.=43.148174, lon.=19.274313, Alt.=1044.766602m. Speed=10.332000m/h.</desc>
<speed>2.870000</speed>
</trkpt>
<trkpt lat="43.149521" lon="19.272856">
<ele>1051.0</ele>
<time>2012-05-01T09:53:44Z</time>
<desc>lat.=43.149521, lon.=19.272856, Alt.=1065.641602m. Speed=3.456000m/h.</desc>
<speed>0.960000</speed>
</trkpt>
<trkpt lat="43.150383" lon="19.272514">
<ele>1065.2</ele>
<time>2012-05-01T09:55:54Z</time>
<desc>lat.=43.150383, lon.=19.272514, Alt.=1079.297852m. Speed=3.060000m/h.</desc>
<speed>0.850000</speed>
</trkpt>
<trkpt lat="43.150120" lon="19.271107">
<ele>1083.8</ele>
<time>2012-05-01T09:57:59Z</time>
<desc>lat.=43.150120, lon.=19.271107, Alt.=1095.422852m. Speed=3.600000m/h.</desc>
<speed>1.000000</speed>
</trkpt>
<trkpt lat="43.149746" lon="19.270325">
<ele>1096.9</ele>
<time>2012-05-01T10:03:44Z</time>
<desc>lat.=43.149746, lon.=19.270325, Alt.=1107.016602m. Speed=3.204000m/h.</desc>
<speed>0.890000</speed>
</trkpt>
<trkpt lat="43.150345" lon="19.269470">
<ele>1117.9</ele>
<time>2012-05-01T10:05:39Z</time>
<desc>lat.=43.150345, lon.=19.269470, Alt.=1125.079102m. Speed=2.700000m/h.</desc>
<speed>0.750000</speed>
</trkpt>
<trkpt lat="43.150482" lon="19.267700">
<ele>1147.5</ele>
<time>2012-05-01T10:08:44Z</time>
<desc>lat.=43.150482, lon.=19.267700, Alt.=1149.797852m. Speed=3.420000m/h.</desc>
<speed>0.950000</speed>
</trkpt>
<trkpt lat="43.149612" lon="19.268972">
<ele>1147.9</ele>
<time>2012-05-01T10:09:49Z</time>
<desc>lat.=43.149612, lon.=19.268972, Alt.=1165.985352m. Speed=12.708000m/h.</desc>
<speed>3.530000</speed>
</trkpt>
<trkpt lat="43.148926" lon="19.269285">
<ele>1149.7</ele>
<time>2012-05-01T10:10:14Z</time>
<desc>lat.=43.148926, lon.=19.269285, Alt.=1167.579102m. Speed=12.852000m/h.</desc>
<speed>3.570000</speed>
</trkpt>
<trkpt lat="43.148464" lon="19.269062">
<ele>1146.3</ele>
<time>2012-05-01T10:10:29Z</time>
<desc>lat.=43.148464, lon.=19.269062, Alt.=1169.766602m. Speed=10.728000m/h.</desc>
<speed>2.980000</speed>
</trkpt>
<trkpt lat="43.147850" lon="19.268072">
<ele>1158.4</ele>
<time>2012-05-01T10:11:04Z</time>
<desc>lat.=43.147850, lon.=19.268072, Alt.=1167.297852m. Speed=9.684000m/h.</desc>
<speed>2.690000</speed>
</trkpt>
<trkpt lat="43.147976" lon="19.267971">
<ele>1158.6</ele>
<time>2012-05-01T10:11:14Z</time>
<desc>lat.=43.147976, lon.=19.267971, Alt.=1167.954102m. Speed=10.440000m/h.</desc>
<speed>2.900000</speed>
</trkpt>
<trkpt lat="43.148415" lon="19.268677">
<ele>1154.3</ele>
<time>2012-05-01T10:11:39Z</time>
<desc>lat.=43.148415, lon.=19.268677, Alt.=1168.735352m. Speed=9.828000m/h.</desc>
<speed>2.730000</speed>
</trkpt>
<trkpt lat="43.148781" lon="19.268797">
<ele>1159.1</ele>
<time>2012-05-01T10:11:54Z</time>
<desc>lat.=43.148781, lon.=19.268797, Alt.=1170.141602m. Speed=10.476000m/h.</desc>
<speed>2.910000</speed>
</trkpt>
<trkpt lat="43.149475" lon="19.268143">
<ele>1173.2</ele>
<time>2012-05-01T10:12:34Z</time>
<desc>lat.=43.149475, lon.=19.268143, Alt.=1181.016602m. Speed=8.064000m/h.</desc>
<speed>2.240000</speed>
</trkpt>
<trkpt lat="43.149841" lon="19.267529">
<ele>1176.0</ele>
<time>2012-05-01T10:12:59Z</time>
<desc>lat.=43.149841, lon.=19.267529, Alt.=1183.485352m. Speed=11.016000m/h.</desc>
<speed>3.060000</speed>
</trkpt>
<trkpt lat="43.150677" lon="19.263926">
<ele>1194.6</ele>
<time>2012-05-01T10:14:54Z</time>
<desc>lat.=43.150677, lon.=19.263926, Alt.=1202.079102m. Speed=10.764000m/h.</desc>
<speed>2.990000</speed>
</trkpt>
<trkpt lat="43.150677" lon="19.263351">
<ele>1199.8</ele>
<time>2012-05-01T10:15:09Z</time>
<desc>lat.=43.150677, lon.=19.263351, Alt.=1204.204102m. Speed=11.052000m/h.</desc>
<speed>3.070000</speed>
</trkpt>
<trkpt lat="43.150387" lon="19.262173">
<ele>1205.6</ele>
<time>2012-05-01T10:15:49Z</time>
<desc>lat.=43.150387, lon.=19.262173, Alt.=1210.422852m. Speed=7.344000m/h.</desc>
<speed>2.040000</speed>
</trkpt>
<trkpt lat="43.150600" lon="19.261570">
<ele>1203.6</ele>
<time>2012-05-01T10:16:14Z</time>
<desc>lat.=43.150600, lon.=19.261570, Alt.=1216.016602m. Speed=6.228000m/h.</desc>
<speed>1.730000</speed>
</trkpt>
<trkpt lat="43.151066" lon="19.261429">
<ele>1208.3</ele>
<time>2012-05-01T10:16:34Z</time>
<desc>lat.=43.151066, lon.=19.261429, Alt.=1217.297852m. Speed=6.300000m/h.</desc>
<speed>1.750000</speed>
</trkpt>
<trkpt lat="43.151672" lon="19.261703">
<ele>1204.8</ele>
<time>2012-05-01T10:16:59Z</time>
<desc>lat.=43.151672, lon.=19.261703, Alt.=1218.016602m. Speed=8.712000m/h.</desc>
<speed>2.420000</speed>
</trkpt>
<trkpt lat="43.152340" lon="19.262671">
<ele>1218.9</ele>
<time>2012-05-01T10:17:44Z</time>
<desc>lat.=43.152340, lon.=19.262671, Alt.=1223.516602m. Speed=10.080000m/h.</desc>
<speed>2.800000</speed>
</trkpt>
<trkpt lat="43.152760" lon="19.262918">
<ele>1226.6</ele>
<time>2012-05-01T10:18:04Z</time>
<desc>lat.=43.152760, lon.=19.262918, Alt.=1226.672852m. Speed=10.152000m/h.</desc>
<speed>2.820000</speed>
</trkpt>
<trkpt lat="43.153412" lon="19.262770">
<ele>1232.0</ele>
<time>2012-05-01T10:18:34Z</time>
<desc>lat.=43.153412, lon.=19.262770, Alt.=1243.141602m. Speed=6.516000m/h.</desc>
<speed>1.810000</speed>
</trkpt>
<trkpt lat="43.153625" lon="19.262157">
<ele>1238.0</ele>
<time>2012-05-01T10:18:59Z</time>
<desc>lat.=43.153625, lon.=19.262157, Alt.=1249.016602m. Speed=8.604000m/h.</desc>
<speed>2.390000</speed>
</trkpt>
<trkpt lat="43.153446" lon="19.261667">
<ele>1245.1</ele>
<time>2012-05-01T10:19:19Z</time>
<desc>lat.=43.153446, lon.=19.261667, Alt.=1254.547852m. Speed=8.568000m/h.</desc>
<speed>2.380000</speed>
</trkpt>
<trkpt lat="43.151787" lon="19.260187">
<ele>1243.4</ele>
<time>2012-05-01T10:21:04Z</time>
<desc>lat.=43.151787, lon.=19.260187, Alt.=1261.485352m. Speed=5.148000m/h.</desc>
<speed>1.430000</speed>
</trkpt>
<trkpt lat="43.151188" lon="19.258564">
<ele>1242.6</ele>
<time>2012-05-01T10:21:59Z</time>
<desc>lat.=43.151188, lon.=19.258564, Alt.=1269.891602m. Speed=10.116000m/h.</desc>
<speed>2.810000</speed>
</trkpt>
<trkpt lat="43.149998" lon="19.256838">
<ele>1273.4</ele>
<time>2012-05-01T10:23:09Z</time>
<desc>lat.=43.149998, lon.=19.256838, Alt.=1268.360352m. Speed=9.864000m/h.</desc>
<speed>2.740000</speed>
</trkpt>
<trkpt lat="43.150066" lon="19.256643">
<ele>1271.8</ele>
<time>2012-05-01T10:23:19Z</time>
<desc>lat.=43.150066, lon.=19.256643, Alt.=1272.204102m. Speed=10.116000m/h.</desc>
<speed>2.810000</speed>
</trkpt>
<trkpt lat="43.151539" lon="19.257841">
<ele>1275.5</ele>
<time>2012-05-01T10:24:54Z</time>
<desc>lat.=43.151539, lon.=19.257841, Alt.=1284.610352m. Speed=4.716000m/h.</desc>
<speed>1.310000</speed>
</trkpt>
<trkpt lat="43.152222" lon="19.258722">
<ele>1284.2</ele>
<time>2012-05-01T10:25:44Z</time>
<desc>lat.=43.152222, lon.=19.258722, Alt.=1293.079102m. Speed=8.136000m/h.</desc>
<speed>2.260000</speed>
</trkpt>
<trkpt lat="43.152706" lon="19.258936">
<ele>1284.3</ele>
<time>2012-05-01T10:26:09Z</time>
<desc>lat.=43.152706, lon.=19.258936, Alt.=1295.579102m. Speed=8.388000m/h.</desc>
<speed>2.330000</speed>
</trkpt>
<trkpt lat="43.152901" lon="19.258801">
<ele>1288.5</ele>
<time>2012-05-01T10:27:04Z</time>
<desc>lat.=43.152901, lon.=19.258801, Alt.=1299.485352m. Speed=0.468000m/h.</desc>
<speed>0.130000</speed>
</trkpt>
<trkpt lat="43.152817" lon="19.258520">
<ele>1292.3</ele>
<time>2012-05-01T10:28:19Z</time>
<desc>lat.=43.152817, lon.=19.258520, Alt.=1301.297852m. Speed=5.868000m/h.</desc>
<speed>1.630000</speed>
</trkpt>
<trkpt lat="43.152302" lon="19.258070">
<ele>1293.9</ele>
<time>2012-05-01T10:29:19Z</time>
<desc>lat.=43.152302, lon.=19.258070, Alt.=1308.141602m. Speed=9.684000m/h.</desc>
<speed>2.690000</speed>
</trkpt>
<trkpt lat="43.151814" lon="19.256662">
<ele>1310.6</ele>
<time>2012-05-01T10:30:19Z</time>
<desc>lat.=43.151814, lon.=19.256662, Alt.=1311.672852m. Speed=4.140000m/h.</desc>
<speed>1.150000</speed>
</trkpt>
<trkpt lat="43.151035" lon="19.255945">
<ele>1312.6</ele>
<time>2012-05-01T10:31:09Z</time>
<desc>lat.=43.151035, lon.=19.255945, Alt.=1320.579102m. Speed=8.532000m/h.</desc>
<speed>2.370000</speed>
</trkpt>
<trkpt lat="43.150932" lon="19.254118">
<ele>1328.2</ele>
<time>2012-05-01T10:32:29Z</time>
<desc>lat.=43.150932, lon.=19.254118, Alt.=1330.641602m. Speed=7.524000m/h.</desc>
<speed>2.090000</speed>
</trkpt>
<trkpt lat="43.150284" lon="19.252832">
<ele>1340.5</ele>
<time>2012-05-01T10:33:29Z</time>
<desc>lat.=43.150284, lon.=19.252832, Alt.=1338.641602m. Speed=6.336000m/h.</desc>
<speed>1.760000</speed>
</trkpt>
<trkpt lat="43.150429" lon="19.251055">
<ele>1340.4</ele>
<time>2012-05-01T10:48:09Z</time>
<desc>lat.=43.150429, lon.=19.251055, Alt.=1341.516602m. Speed=14.652000m/h.</desc>
<speed>4.070000</speed>
</trkpt>
<trkpt lat="43.150181" lon="19.250011">
<ele>1341.3</ele>
<time>2012-05-01T10:48:34Z</time>
<desc>lat.=43.150181, lon.=19.250011, Alt.=1342.672852m. Speed=12.348000m/h.</desc>
<speed>3.430000</speed>
</trkpt>
<trkpt lat="43.149784" lon="19.249466">
<ele>1343.5</ele>
<time>2012-05-01T10:48:49Z</time>
<desc>lat.=43.149784, lon.=19.249466, Alt.=1342.766602m. Speed=17.676001m/h.</desc>
<speed>4.910000</speed>
</trkpt>
<trkpt lat="43.148277" lon="19.248302">
<ele>1336.1</ele>
<time>2012-05-01T10:49:14Z</time>
<desc>lat.=43.148277, lon.=19.248302, Alt.=1342.797852m. Speed=35.172001m/h.</desc>
<speed>9.770000</speed>
</trkpt>
<trkpt lat="43.147747" lon="19.247349">
<ele>1335.1</ele>
<time>2012-05-01T10:49:24Z</time>
<desc>lat.=43.147747, lon.=19.247349, Alt.=1343.516602m. Speed=33.012001m/h.</desc>
<speed>9.170000</speed>
</trkpt>
<trkpt lat="43.147655" lon="19.245699">
<ele>1336.7</ele>
<time>2012-05-01T10:49:39Z</time>
<desc>lat.=43.147655, lon.=19.245699, Alt.=1339.954102m. Speed=33.695999m/h.</desc>
<speed>9.360000</speed>
</trkpt>
<trkpt lat="43.148499" lon="19.243097">
<ele>1342.9</ele>
<time>2012-05-01T10:50:09Z</time>
<desc>lat.=43.148499, lon.=19.243097, Alt.=1332.079102m. Speed=22.752001m/h.</desc>
<speed>6.320000</speed>
</trkpt>
<trkpt lat="43.148479" lon="19.241402">
<ele>1346.1</ele>
<time>2012-05-01T10:50:29Z</time>
<desc>lat.=43.148479, lon.=19.241402, Alt.=1331.985352m. Speed=23.580000m/h.</desc>
<speed>6.550000</speed>
</trkpt>
<trkpt lat="43.148090" lon="19.239275">
<ele>1337.4</ele>
<time>2012-05-01T10:50:54Z</time>
<desc>lat.=43.148090, lon.=19.239275, Alt.=1335.641602m. Speed=26.927999m/h.</desc>
<speed>7.480000</speed>
</trkpt>
<trkpt lat="43.148457" lon="19.236893">
<ele>1333.9</ele>
<time>2012-05-01T10:51:19Z</time>
<desc>lat.=43.148457, lon.=19.236893, Alt.=1338.204102m. Speed=29.556000m/h.</desc>
<speed>8.210000</speed>
</trkpt>
<trkpt lat="43.148178" lon="19.235954">
<ele>1329.9</ele>
<time>2012-05-01T10:51:29Z</time>
<desc>lat.=43.148178, lon.=19.235954, Alt.=1337.297852m. Speed=31.968000m/h.</desc>
<speed>8.880000</speed>
</trkpt>
<trkpt lat="43.147442" lon="19.235220">
<ele>1326.2</ele>
<time>2012-05-01T10:51:39Z</time>
<desc>lat.=43.147442, lon.=19.235220, Alt.=1333.797852m. Speed=41.543999m/h.</desc>
<speed>11.540000</speed>
</trkpt>
<trkpt lat="43.144867" lon="19.233625">
<ele>1305.4</ele>
<time>2012-05-01T10:52:04Z</time>
<desc>lat.=43.144867, lon.=19.233625, Alt.=1317.204102m. Speed=24.084000m/h.</desc>
<speed>6.690000</speed>
</trkpt>
<trkpt lat="43.144672" lon="19.233589">
<ele>1305.1</ele>
<time>2012-05-01T10:52:09Z</time>
<desc>lat.=43.144672, lon.=19.233589, Alt.=1316.204102m. Speed=8.964000m/h.</desc>
<speed>2.490000</speed>
</trkpt>
<trkpt lat="43.143787" lon="19.234283">
<ele>1304.8</ele>
<time>2012-05-01T10:54:39Z</time>
<desc>lat.=43.143787, lon.=19.234283, Alt.=1315.547852m. Speed=20.375999m/h.</desc>
<speed>5.660000</speed>
</trkpt>
<trkpt lat="43.142643" lon="19.234108">
<ele>1304.2</ele>
<time>2012-05-01T10:55:04Z</time>
<desc>lat.=43.142643, lon.=19.234108, Alt.=1315.641602m. Speed=21.708000m/h.</desc>
<speed>6.030000</speed>
</trkpt>
<trkpt lat="43.141781" lon="19.234491">
<ele>1302.6</ele>
<time>2012-05-01T10:55:19Z</time>
<desc>lat.=43.141781, lon.=19.234491, Alt.=1312.704102m. Speed=27.684000m/h.</desc>
<speed>7.690000</speed>
</trkpt>
<trkpt lat="43.141441" lon="19.234455">
<ele>1300.8</ele>
<time>2012-05-01T10:55:24Z</time>
<desc>lat.=43.141441, lon.=19.234455, Alt.=1312.610352m. Speed=25.920000m/h.</desc>
<speed>7.200000</speed>
</trkpt>
<trkpt lat="43.134884" lon="19.232229">
<ele>1310.6</ele>
<time>2012-05-01T10:57:34Z</time>
<desc>lat.=43.134884, lon.=19.232229, Alt.=1321.079102m. Speed=15.300000m/h.</desc>
<speed>4.250000</speed>
</trkpt>
<trkpt lat="43.132782" lon="19.231365">
<ele>1316.4</ele>
<time>2012-05-01T10:58:34Z</time>
<desc>lat.=43.132782, lon.=19.231365, Alt.=1323.454102m. Speed=13.500000m/h.</desc>
<speed>3.750000</speed>
</trkpt>
<trkpt lat="43.131489" lon="19.230347">
<ele>1313.4</ele>
<time>2012-05-01T10:59:04Z</time>
<desc>lat.=43.131489, lon.=19.230347, Alt.=1320.985352m. Speed=28.656000m/h.</desc>
<speed>7.960000</speed>
</trkpt>
<trkpt lat="43.130768" lon="19.230196">
<ele>1309.5</ele>
<time>2012-05-01T10:59:14Z</time>
<desc>lat.=43.130768, lon.=19.230196, Alt.=1318.547852m. Speed=30.636000m/h.</desc>
<speed>8.510000</speed>
</trkpt>
<trkpt lat="43.127720" lon="19.227728">
<ele>1310.6</ele>
<time>2012-05-01T11:00:14Z</time>
<desc>lat.=43.127720, lon.=19.227728, Alt.=1321.797852m. Speed=8.100000m/h.</desc>
<speed>2.250000</speed>
</trkpt>
<trkpt lat="43.127815" lon="19.227627">
<ele>1310.6</ele>
<time>2012-05-01T11:00:29Z</time>
<desc>lat.=43.127815, lon.=19.227627, Alt.=1319.079102m. Speed=0.576000m/h.</desc>
<speed>0.160000</speed>
</trkpt>
<trkpt lat="43.127243" lon="19.227398">
<ele>1311.0</ele>
<time>2012-05-01T11:00:49Z</time>
<desc>lat.=43.127243, lon.=19.227398, Alt.=1320.079102m. Speed=15.012000m/h.</desc>
<speed>4.170000</speed>
</trkpt>
<trkpt lat="43.123444" lon="19.224583">
<ele>1316.0</ele>
<time>2012-05-01T11:02:24Z</time>
<desc>lat.=43.123444, lon.=19.224583, Alt.=1326.672852m. Speed=16.596001m/h.</desc>
<speed>4.610000</speed>
</trkpt>
<trkpt lat="43.117699" lon="19.217312">
<ele>1331.5</ele>
<time>2012-05-01T11:07:54Z</time>
<desc>lat.=43.117699, lon.=19.217312, Alt.=1342.485352m. Speed=16.128000m/h.</desc>
<speed>4.480000</speed>
</trkpt>
<trkpt lat="43.116344" lon="19.214823">
<ele>1342.5</ele>
<time>2012-05-01T11:11:44Z</time>
<desc>lat.=43.116344, lon.=19.214823, Alt.=1352.547852m. Speed=13.428000m/h.</desc>
<speed>3.730000</speed>
</trkpt>
<trkpt lat="43.116146" lon="19.214104">
<ele>1343.4</ele>
<time>2012-05-01T11:11:59Z</time>
<desc>lat.=43.116146, lon.=19.214104, Alt.=1354.079102m. Speed=10.476000m/h.</desc>
<speed>2.910000</speed>
</trkpt>
<trkpt lat="43.116142" lon="19.213024">
<ele>1347.1</ele>
<time>2012-05-01T11:12:39Z</time>
<desc>lat.=43.116142, lon.=19.213024, Alt.=1362.891602m. Speed=10.584000m/h.</desc>
<speed>2.940000</speed>
</trkpt>
<trkpt lat="43.115387" lon="19.212198">
<ele>1350.9</ele>
<time>2012-05-01T11:13:29Z</time>
<desc>lat.=43.115387, lon.=19.212198, Alt.=1370.016602m. Speed=8.136000m/h.</desc>
<speed>2.260000</speed>
</trkpt>
<trkpt lat="43.115421" lon="19.210926">
<ele>1356.0</ele>
<time>2012-05-01T11:14:19Z</time>
<desc>lat.=43.115421, lon.=19.210926, Alt.=1390.766602m. Speed=9.936000m/h.</desc>
<speed>2.760000</speed>
</trkpt>
<trkpt lat="43.115295" lon="19.210638">
<ele>1357.5</ele>
<time>2012-05-01T11:14:29Z</time>
<desc>lat.=43.115295, lon.=19.210638, Alt.=1392.391602m. Speed=3.960000m/h.</desc>
<speed>1.100000</speed>
</trkpt>
<trkpt lat="43.114796" lon="19.210434">
<ele>1365.1</ele>
<time>2012-05-01T11:14:54Z</time>
<desc>lat.=43.114796, lon.=19.210434, Alt.=1395.360352m. Speed=9.360000m/h.</desc>
<speed>2.600000</speed>
</trkpt>
<trkpt lat="43.114746" lon="19.209091">
<ele>1369.9</ele>
<time>2012-05-01T11:15:34Z</time>
<desc>lat.=43.114746, lon.=19.209091, Alt.=1393.266602m. Speed=11.160000m/h.</desc>
<speed>3.100000</speed>
</trkpt>
<trkpt lat="43.115032" lon="19.207020">
<ele>1370.9</ele>
<time>2012-05-01T11:16:19Z</time>
<desc>lat.=43.115032, lon.=19.207020, Alt.=1386.047852m. Speed=14.652000m/h.</desc>
<speed>4.070000</speed>
</trkpt>
<trkpt lat="43.114517" lon="19.205620">
<ele>1377.0</ele>
<time>2012-05-01T11:16:54Z</time>
<desc>lat.=43.114517, lon.=19.205620, Alt.=1392.422852m. Speed=14.580000m/h.</desc>
<speed>4.050000</speed>
</trkpt>
<trkpt lat="43.115154" lon="19.202326">
<ele>1386.3</ele>
<time>2012-05-01T11:18:09Z</time>
<desc>lat.=43.115154, lon.=19.202326, Alt.=1392.204102m. Speed=13.788000m/h.</desc>
<speed>3.830000</speed>
</trkpt>
<trkpt lat="43.115509" lon="19.201912">
<ele>1387.2</ele>
<time>2012-05-01T11:18:24Z</time>
<desc>lat.=43.115509, lon.=19.201912, Alt.=1394.579102m. Speed=12.240000m/h.</desc>
<speed>3.400000</speed>
</trkpt>
<trkpt lat="43.115429" lon="19.200939">
<ele>1387.0</ele>
<time>2012-05-01T11:18:49Z</time>
<desc>lat.=43.115429, lon.=19.200939, Alt.=1397.860352m. Speed=12.456000m/h.</desc>
<speed>3.460000</speed>
</trkpt>
<trkpt lat="43.115139" lon="19.200371">
<ele>1387.4</ele>
<time>2012-05-01T11:19:04Z</time>
<desc>lat.=43.115139, lon.=19.200371, Alt.=1398.391602m. Speed=14.256000m/h.</desc>
<speed>3.960000</speed>
</trkpt>
<trkpt lat="43.115170" lon="19.199799">
<ele>1391.7</ele>
<time>2012-05-01T11:19:19Z</time>
<desc>lat.=43.115170, lon.=19.199799, Alt.=1401.829102m. Speed=8.964000m/h.</desc>
<speed>2.490000</speed>
</trkpt>
<trkpt lat="43.114849" lon="19.199577">
<ele>1396.7</ele>
<time>2012-05-01T11:19:34Z</time>
<desc>lat.=43.114849, lon.=19.199577, Alt.=1403.985352m. Speed=10.944000m/h.</desc>
<speed>3.040000</speed>
</trkpt>
<trkpt lat="43.114178" lon="19.199974">
<ele>1399.2</ele>
<time>2012-05-01T11:20:04Z</time>
<desc>lat.=43.114178, lon.=19.199974, Alt.=1407.016602m. Speed=7.380000m/h.</desc>
<speed>2.050000</speed>
</trkpt>
<trkpt lat="43.113071" lon="19.199524">
<ele>1401.4</ele>
<time>2012-05-01T11:20:54Z</time>
<desc>lat.=43.113071, lon.=19.199524, Alt.=1401.954102m. Speed=8.424000m/h.</desc>
<speed>2.340000</speed>
</trkpt>
<trkpt lat="43.112751" lon="19.199060">
<ele>1403.2</ele>
<time>2012-05-01T11:21:14Z</time>
<desc>lat.=43.112751, lon.=19.199060, Alt.=1410.079102m. Speed=9.036000m/h.</desc>
<speed>2.510000</speed>
</trkpt>
<trkpt lat="43.112350" lon="19.199018">
<ele>1403.1</ele>
<time>2012-05-01T11:21:34Z</time>
<desc>lat.=43.112350, lon.=19.199018, Alt.=1412.172852m. Speed=10.008000m/h.</desc>
<speed>2.780000</speed>
</trkpt>
<trkpt lat="43.111713" lon="19.198355">
<ele>1410.5</ele>
<time>2012-05-01T11:22:04Z</time>
<desc>lat.=43.111713, lon.=19.198355, Alt.=1416.485352m. Speed=9.216000m/h.</desc>
<speed>2.560000</speed>
</trkpt>
<trkpt lat="43.111198" lon="19.198349">
<ele>1407.2</ele>
<time>2012-05-01T11:22:24Z</time>
<desc>lat.=43.111198, lon.=19.198349, Alt.=1419.735352m. Speed=9.396000m/h.</desc>
<speed>2.610000</speed>
</trkpt>
<trkpt lat="43.110619" lon="19.197639">
<ele>1417.3</ele>
<time>2012-05-01T11:22:54Z</time>
<desc>lat.=43.110619, lon.=19.197639, Alt.=1418.141602m. Speed=9.540000m/h.</desc>
<speed>2.650000</speed>
</trkpt>
<trkpt lat="43.110329" lon="19.197636">
<ele>1417.6</ele>
<time>2012-05-01T11:23:04Z</time>
<desc>lat.=43.110329, lon.=19.197636, Alt.=1417.954102m. Speed=11.304000m/h.</desc>
<speed>3.140000</speed>
</trkpt>
<trkpt lat="43.109726" lon="19.196955">
<ele>1425.7</ele>
<time>2012-05-01T11:23:34Z</time>
<desc>lat.=43.109726, lon.=19.196955, Alt.=1424.110352m. Speed=15.408000m/h.</desc>
<speed>4.280000</speed>
</trkpt>
<trkpt lat="43.108917" lon="19.196476">
<ele>1427.2</ele>
<time>2012-05-01T11:24:04Z</time>
<desc>lat.=43.108917, lon.=19.196476, Alt.=1428.985352m. Speed=15.048000m/h.</desc>
<speed>4.180000</speed>
</trkpt>
<trkpt lat="43.108463" lon="19.195375">
<ele>1421.9</ele>
<time>2012-05-01T11:28:04Z</time>
<desc>lat.=43.108463, lon.=19.195375, Alt.=1424.235352m. Speed=3.672000m/h.</desc>
<speed>1.020000</speed>
</trkpt>
<trkpt lat="43.108307" lon="19.193661">
<ele>1408.3</ele>
<time>2012-05-01T11:29:54Z</time>
<desc>lat.=43.108307, lon.=19.193661, Alt.=1417.141602m. Speed=26.964001m/h.</desc>
<speed>7.490000</speed>
</trkpt>
<trkpt lat="43.108654" lon="19.191103">
<ele>1402.1</ele>
<time>2012-05-01T11:30:14Z</time>
<desc>lat.=43.108654, lon.=19.191103, Alt.=1408.579102m. Speed=46.007999m/h.</desc>
<speed>12.780000</speed>
</trkpt>
<trkpt lat="43.109200" lon="19.188726">
<ele>1398.5</ele>
<time>2012-05-01T11:30:29Z</time>
<desc>lat.=43.109200, lon.=19.188726, Alt.=1402.454102m. Speed=52.127998m/h.</desc>
<speed>14.480000</speed>
</trkpt>
<trkpt lat="43.109264" lon="19.186928">
<ele>1393.7</ele>
<time>2012-05-01T11:30:39Z</time>
<desc>lat.=43.109264, lon.=19.186928, Alt.=1397.829102m. Speed=51.875999m/h.</desc>
<speed>14.410000</speed>
</trkpt>
<trkpt lat="43.109020" lon="19.185286">
<ele>1389.4</ele>
<time>2012-05-01T11:30:49Z</time>
<desc>lat.=43.109020, lon.=19.185286, Alt.=1395.329102m. Speed=44.820000m/h.</desc>
<speed>12.450000</speed>
</trkpt>
<trkpt lat="43.108814" lon="19.184645">
<ele>1391.9</ele>
<time>2012-05-01T11:30:54Z</time>
<desc>lat.=43.108814, lon.=19.184645, Alt.=1396.079102m. Speed=40.104000m/h.</desc>
<speed>11.140000</speed>
</trkpt>
<trkpt lat="43.108261" lon="19.183741">
<ele>1397.3</ele>
<time>2012-05-01T11:31:04Z</time>
<desc>lat.=43.108261, lon.=19.183741, Alt.=1398.172852m. Speed=27.360001m/h.</desc>
<speed>7.600000</speed>
</trkpt>
<trkpt lat="43.108276" lon="19.182495">
<ele>1400.7</ele>
<time>2012-05-01T11:31:29Z</time>
<desc>lat.=43.108276, lon.=19.182495, Alt.=1403.766602m. Speed=13.464000m/h.</desc>
<speed>3.740000</speed>
</trkpt>
<trkpt lat="43.107948" lon="19.181513">
<ele>1400.8</ele>
<time>2012-05-01T11:31:49Z</time>
<desc>lat.=43.107948, lon.=19.181513, Alt.=1403.360352m. Speed=16.308001m/h.</desc>
<speed>4.530000</speed>
</trkpt>
<trkpt lat="43.109581" lon="19.176455">
<ele>1393.5</ele>
<time>2012-05-01T11:32:44Z</time>
<desc>lat.=43.109581, lon.=19.176455, Alt.=1402.735352m. Speed=30.167999m/h.</desc>
<speed>8.380000</speed>
</trkpt>
<trkpt lat="43.109520" lon="19.175983">
<ele>1393.5</ele>
<time>2012-05-01T11:32:49Z</time>
<desc>lat.=43.109520, lon.=19.175983, Alt.=1402.266602m. Speed=27.216000m/h.</desc>
<speed>7.560000</speed>
</trkpt>
<trkpt lat="43.108932" lon="19.174726">
<ele>1394.0</ele>
<time>2012-05-01T11:33:49Z</time>
<desc>lat.=43.108932, lon.=19.174726, Alt.=1401.297852m. Speed=14.724000m/h.</desc>
<speed>4.090000</speed>
</trkpt>
<trkpt lat="43.108124" lon="19.170870">
<ele>1398.0</ele>
<time>2012-05-01T11:34:59Z</time>
<desc>lat.=43.108124, lon.=19.170870, Alt.=1399.641602m. Speed=11.376000m/h.</desc>
<speed>3.160000</speed>
</trkpt>
<trkpt lat="43.108192" lon="19.169329">
<ele>1406.5</ele>
<time>2012-05-01T11:35:44Z</time>
<desc>lat.=43.108192, lon.=19.169329, Alt.=1407.235352m. Speed=9.576000m/h.</desc>
<speed>2.660000</speed>
</trkpt>
<trkpt lat="43.107231" lon="19.168655">
<ele>1414.4</ele>
<time>2012-05-01T11:36:39Z</time>
<desc>lat.=43.107231, lon.=19.168655, Alt.=1412.766602m. Speed=8.280000m/h.</desc>
<speed>2.300000</speed>
</trkpt>
<trkpt lat="43.107002" lon="19.166933">
<ele>1420.3</ele>
<time>2012-05-01T11:37:34Z</time>
<desc>lat.=43.107002, lon.=19.166933, Alt.=1417.985352m. Speed=5.580000m/h.</desc>
<speed>1.550000</speed>
</trkpt>
<trkpt lat="43.106159" lon="19.166218">
<ele>1419.9</ele>
<time>2012-05-01T11:41:29Z</time>
<desc>lat.=43.106159, lon.=19.166218, Alt.=1413.797852m. Speed=28.836000m/h.</desc>
<speed>8.010000</speed>
</trkpt>
<trkpt lat="43.106022" lon="19.165224">
<ele>1416.5</ele>
<time>2012-05-01T11:41:39Z</time>
<desc>lat.=43.106022, lon.=19.165224, Alt.=1412.235352m. Speed=29.412001m/h.</desc>
<speed>8.170000</speed>
</trkpt>
<trkpt lat="43.104942" lon="19.161890">
<ele>1410.1</ele>
<time>2012-05-01T11:42:14Z</time>
<desc>lat.=43.104942, lon.=19.161890, Alt.=1407.860352m. Speed=30.240000m/h.</desc>
<speed>8.400000</speed>
</trkpt>
<trkpt lat="43.103512" lon="19.159613">
<ele>1411.2</ele>
<time>2012-05-01T11:42:49Z</time>
<desc>lat.=43.103512, lon.=19.159613, Alt.=1406.485352m. Speed=18.540001m/h.</desc>
<speed>5.150000</speed>
</trkpt>
<trkpt lat="43.102875" lon="19.159431">
<ele>1412.7</ele>
<time>2012-05-01T11:43:04Z</time>
<desc>lat.=43.102875, lon.=19.159431, Alt.=1407.391602m. Speed=17.136000m/h.</desc>
<speed>4.760000</speed>
</trkpt>
<trkpt lat="43.101616" lon="19.158670">
<ele>1410.4</ele>
<time>2012-05-01T11:43:34Z</time>
<desc>lat.=43.101616, lon.=19.158670, Alt.=1408.235352m. Speed=19.260000m/h.</desc>
<speed>5.350000</speed>
</trkpt>
<trkpt lat="43.101467" lon="19.158060">
<ele>1411.2</ele>
<time>2012-05-01T11:43:44Z</time>
<desc>lat.=43.101467, lon.=19.158060, Alt.=1408.235352m. Speed=16.884001m/h.</desc>
<speed>4.690000</speed>
</trkpt>
<trkpt lat="43.101742" lon="19.157028">
<ele>1409.6</ele>
<time>2012-05-01T11:44:04Z</time>
<desc>lat.=43.101742, lon.=19.157028, Alt.=1407.797852m. Speed=17.964001m/h.</desc>
<speed>4.990000</speed>
</trkpt>
<trkpt lat="43.101677" lon="19.156750">
<ele>1410.4</ele>
<time>2012-05-01T11:44:09Z</time>
<desc>lat.=43.101677, lon.=19.156750, Alt.=1407.704102m. Speed=15.768000m/h.</desc>
<speed>4.380000</speed>
</trkpt>
<trkpt lat="43.100807" lon="19.155411">
<ele>1410.8</ele>
<time>2012-05-01T11:44:39Z</time>
<desc>lat.=43.100807, lon.=19.155411, Alt.=1407.204102m. Speed=21.492001m/h.</desc>
<speed>5.970000</speed>
</trkpt>
<trkpt lat="43.099777" lon="19.154591">
<ele>1410.1</ele>
<time>2012-05-01T11:44:59Z</time>
<desc>lat.=43.099777, lon.=19.154591, Alt.=1405.454102m. Speed=19.908001m/h.</desc>
<speed>5.530000</speed>
</trkpt>
<trkpt lat="43.098545" lon="19.153919">
<ele>1409.5</ele>
<time>2012-05-01T11:45:24Z</time>
<desc>lat.=43.098545, lon.=19.153919, Alt.=1405.110352m. Speed=22.643999m/h.</desc>
<speed>6.290000</speed>
</trkpt>
<trkpt lat="43.095692" lon="19.151642">
<ele>1411.3</ele>
<time>2012-05-01T11:46:34Z</time>
<desc>lat.=43.095692, lon.=19.151642, Alt.=1409.141602m. Speed=14.436000m/h.</desc>
<speed>4.010000</speed>
</trkpt>
<trkpt lat="43.094212" lon="19.151756">
<ele>1413.4</ele>
<time>2012-05-01T11:47:09Z</time>
<desc>lat.=43.094212, lon.=19.151756, Alt.=1418.704102m. Speed=17.639999m/h.</desc>
<speed>4.900000</speed>
</trkpt>
<trkpt lat="43.093868" lon="19.151590">
<ele>1413.6</ele>
<time>2012-05-01T11:47:19Z</time>
<desc>lat.=43.093868, lon.=19.151590, Alt.=1417.360352m. Speed=17.028000m/h.</desc>
<speed>4.730000</speed>
</trkpt>
<trkpt lat="43.093605" lon="19.149517">
<ele>1412.6</ele>
<time>2012-05-01T11:47:59Z</time>
<desc>lat.=43.093605, lon.=19.149517, Alt.=1415.329102m. Speed=16.056000m/h.</desc>
<speed>4.460000</speed>
</trkpt>
<trkpt lat="43.093403" lon="19.149096">
<ele>1412.6</ele>
<time>2012-05-01T11:48:09Z</time>
<desc>lat.=43.093403, lon.=19.149096, Alt.=1416.766602m. Speed=16.524000m/h.</desc>
<speed>4.590000</speed>
</trkpt>
<trkpt lat="43.092587" lon="19.148708">
<ele>1413.2</ele>
<time>2012-05-01T11:48:29Z</time>
<desc>lat.=43.092587, lon.=19.148708, Alt.=1415.704102m. Speed=16.559999m/h.</desc>
<speed>4.600000</speed>
</trkpt>
<trkpt lat="43.091877" lon="19.148729">
<ele>1413.2</ele>
<time>2012-05-01T11:48:54Z</time>
<desc>lat.=43.091877, lon.=19.148729, Alt.=1414.329102m. Speed=16.884001m/h.</desc>
<speed>4.690000</speed>
</trkpt>
<trkpt lat="43.091476" lon="19.147970">
<ele>1415.3</ele>
<time>2012-05-01T11:49:09Z</time>
<desc>lat.=43.091476, lon.=19.147970, Alt.=1415.141602m. Speed=23.760000m/h.</desc>
<speed>6.600000</speed>
</trkpt>
<trkpt lat="43.090683" lon="19.147675">
<ele>1416.9</ele>
<time>2012-05-01T11:49:29Z</time>
<desc>lat.=43.090683, lon.=19.147675, Alt.=1416.641602m. Speed=17.388000m/h.</desc>
<speed>4.830000</speed>
</trkpt>
<trkpt lat="43.089638" lon="19.146641">
<ele>1419.8</ele>
<time>2012-05-01T11:49:59Z</time>
<desc>lat.=43.089638, lon.=19.146641, Alt.=1416.954102m. Speed=17.639999m/h.</desc>
<speed>4.900000</speed>
</trkpt>
<trkpt lat="43.087914" lon="19.145977">
<ele>1418.2</ele>
<time>2012-05-01T11:50:29Z</time>
<desc>lat.=43.087914, lon.=19.145977, Alt.=1413.297852m. Speed=23.580000m/h.</desc>
<speed>6.550000</speed>
</trkpt>
<trkpt lat="43.087341" lon="19.145176">
<ele>1413.9</ele>
<time>2012-05-01T11:50:44Z</time>
<desc>lat.=43.087341, lon.=19.145176, Alt.=1410.797852m. Speed=21.959999m/h.</desc>
<speed>6.100000</speed>
</trkpt>
<trkpt lat="43.084332" lon="19.143806">
<ele>1421.4</ele>
<time>2012-05-01T11:52:14Z</time>
<desc>lat.=43.084332, lon.=19.143806, Alt.=1419.266602m. Speed=12.312000m/h.</desc>
<speed>3.420000</speed>
</trkpt>
<trkpt lat="43.081009" lon="19.141987">
<ele>1433.3</ele>
<time>2012-05-01T11:53:59Z</time>
<desc>lat.=43.081009, lon.=19.141987, Alt.=1426.860352m. Speed=16.596001m/h.</desc>
<speed>4.610000</speed>
</trkpt>
<trkpt lat="43.080402" lon="19.141481">
<ele>1433.8</ele>
<time>2012-05-01T11:54:24Z</time>
<desc>lat.=43.080402, lon.=19.141481, Alt.=1427.391602m. Speed=4.716000m/h.</desc>
<speed>1.310000</speed>
</trkpt>
<trkpt lat="43.080555" lon="19.141144">
<ele>1433.2</ele>
<time>2012-05-01T11:56:24Z</time>
<desc>lat.=43.080555, lon.=19.141144, Alt.=1431.985352m. Speed=15.336000m/h.</desc>
<speed>4.260000</speed>
</trkpt>
<trkpt lat="43.083847" lon="19.137859">
<ele>1425.1</ele>
<time>2012-05-01T11:57:24Z</time>
<desc>lat.=43.083847, lon.=19.137859, Alt.=1430.610352m. Speed=38.591999m/h.</desc>
<speed>10.720000</speed>
</trkpt>
<trkpt lat="43.084267" lon="19.137503">
<ele>1423.1</ele>
<time>2012-05-01T11:57:29Z</time>
<desc>lat.=43.084267, lon.=19.137503, Alt.=1430.141602m. Speed=40.175999m/h.</desc>
<speed>11.160000</speed>
</trkpt>
<trkpt lat="43.086327" lon="19.136541">
<ele>1430.4</ele>
<time>2012-05-01T11:58:19Z</time>
<desc>lat.=43.086327, lon.=19.136541, Alt.=1438.204102m. Speed=12.996000m/h.</desc>
<speed>3.610000</speed>
</trkpt>
<trkpt lat="43.092472" lon="19.131643">
<ele>1438.3</ele>
<time>2012-05-01T12:00:29Z</time>
<desc>lat.=43.092472, lon.=19.131643, Alt.=1452.204102m. Speed=17.892000m/h.</desc>
<speed>4.970000</speed>
</trkpt>
<trkpt lat="43.092819" lon="19.131283">
<ele>1440.4</ele>
<time>2012-05-01T12:00:39Z</time>
<desc>lat.=43.092819, lon.=19.131283, Alt.=1453.704102m. Speed=17.424000m/h.</desc>
<speed>4.840000</speed>
</trkpt>
<trkpt lat="43.093243" lon="19.130363">
<ele>1439.1</ele>
<time>2012-05-01T12:00:54Z</time>
<desc>lat.=43.093243, lon.=19.130363, Alt.=1450.797852m. Speed=29.556000m/h.</desc>
<speed>8.210000</speed>
</trkpt>
<trkpt lat="43.093586" lon="19.130087">
<ele>1437.4</ele>
<time>2012-05-01T12:00:59Z</time>
<desc>lat.=43.093586, lon.=19.130087, Alt.=1449.360352m. Speed=35.352001m/h.</desc>
<speed>9.820000</speed>
</trkpt>
<trkpt lat="43.095154" lon="19.129898">
<ele>1437.0</ele>
<time>2012-05-01T12:01:19Z</time>
<desc>lat.=43.095154, lon.=19.129898, Alt.=1451.079102m. Speed=26.820000m/h.</desc>
<speed>7.450000</speed>
</trkpt>
<trkpt lat="43.096256" lon="19.130337">
<ele>1434.9</ele>
<time>2012-05-01T12:01:34Z</time>
<desc>lat.=43.096256, lon.=19.130337, Alt.=1445.422852m. Speed=39.096001m/h.</desc>
<speed>10.860000</speed>
</trkpt>
<trkpt lat="43.096699" lon="19.130722">
<ele>1433.2</ele>
<time>2012-05-01T12:01:39Z</time>
<desc>lat.=43.096699, lon.=19.130722, Alt.=1443.891602m. Speed=42.984001m/h.</desc>
<speed>11.940000</speed>
</trkpt>
<trkpt lat="43.098499" lon="19.131002">
<ele>1436.8</ele>
<time>2012-05-01T12:01:59Z</time>
<desc>lat.=43.098499, lon.=19.131002, Alt.=1445.454102m. Speed=29.556000m/h.</desc>
<speed>8.210000</speed>
</trkpt>
<trkpt lat="43.099800" lon="19.130512">
<ele>1434.0</ele>
<time>2012-05-01T12:02:19Z</time>
<desc>lat.=43.099800, lon.=19.130512, Alt.=1442.110352m. Speed=34.200001m/h.</desc>
<speed>9.500000</speed>
</trkpt>
<trkpt lat="43.101376" lon="19.130476">
<ele>1425.6</ele>
<time>2012-05-01T12:02:34Z</time>
<desc>lat.=43.101376, lon.=19.130476, Alt.=1434.766602m. Speed=44.063999m/h.</desc>
<speed>12.240000</speed>
</trkpt>
<trkpt lat="43.102913" lon="19.129395">
<ele>1424.2</ele>
<time>2012-05-01T12:02:54Z</time>
<desc>lat.=43.102913, lon.=19.129395, Alt.=1432.547852m. Speed=28.656000m/h.</desc>
<speed>7.960000</speed>
</trkpt>
<trkpt lat="43.103786" lon="19.127699">
<ele>1424.2</ele>
<time>2012-05-01T12:03:14Z</time>
<desc>lat.=43.103786, lon.=19.127699, Alt.=1432.860352m. Speed=21.672001m/h.</desc>
<speed>6.020000</speed>
</trkpt>
<trkpt lat="43.104439" lon="19.125622">
<ele>1431.9</ele>
<time>2012-05-01T12:04:14Z</time>
<desc>lat.=43.104439, lon.=19.125622, Alt.=1442.516602m. Speed=14.148000m/h.</desc>
<speed>3.930000</speed>
</trkpt>
<trkpt lat="43.105515" lon="19.125210">
<ele>1437.7</ele>
<time>2012-05-01T12:04:59Z</time>
<desc>lat.=43.105515, lon.=19.125210, Alt.=1449.079102m. Speed=10.692000m/h.</desc>
<speed>2.970000</speed>
</trkpt>
<trkpt lat="43.105904" lon="19.124109">
<ele>1445.4</ele>
<time>2012-05-01T12:05:34Z</time>
<desc>lat.=43.105904, lon.=19.124109, Alt.=1454.110352m. Speed=10.008000m/h.</desc>
<speed>2.780000</speed>
</trkpt>
<trkpt lat="43.108742" lon="19.124798">
<ele>1443.4</ele>
<time>2012-05-01T12:06:54Z</time>
<desc>lat.=43.108742, lon.=19.124798, Alt.=1451.641602m. Speed=0.108000m/h.</desc>
<speed>0.030000</speed>
</trkpt>
<trkpt lat="43.108749" lon="19.124565">
<ele>1444.7</ele>
<time>2012-05-01T12:12:39Z</time>
<desc>lat.=43.108749, lon.=19.124565, Alt.=1452.516602m. Speed=9.576000m/h.</desc>
<speed>2.660000</speed>
</trkpt>
<trkpt lat="43.110397" lon="19.123623">
<ele>1455.7</ele>
<time>2012-05-01T12:14:09Z</time>
<desc>lat.=43.110397, lon.=19.123623, Alt.=1478.766602m. Speed=4.284000m/h.</desc>
<speed>1.190000</speed>
</trkpt>
<trkpt lat="43.113064" lon="19.120729">
<ele>1481.0</ele>
<time>2012-05-01T12:17:34Z</time>
<desc>lat.=43.113064, lon.=19.120729, Alt.=1488.672852m. Speed=5.724000m/h.</desc>
<speed>1.590000</speed>
</trkpt>
<trkpt lat="43.113297" lon="19.119219">
<ele>1482.8</ele>
<time>2012-05-01T12:18:14Z</time>
<desc>lat.=43.113297, lon.=19.119219, Alt.=1485.329102m. Speed=13.680000m/h.</desc>
<speed>3.800000</speed>
</trkpt>
<trkpt lat="43.113800" lon="19.118353">
<ele>1484.0</ele>
<time>2012-05-01T12:19:34Z</time>
<desc>lat.=43.113800, lon.=19.118353, Alt.=1487.985352m. Speed=0.000000m/h.</desc>
<speed>0.000000</speed>
</trkpt>
<trkpt lat="43.115147" lon="19.117279">
<ele>1479.9</ele>
<time>2012-05-01T12:21:09Z</time>
<desc>lat.=43.115147, lon.=19.117279, Alt.=1486.391602m. Speed=14.292000m/h.</desc>
<speed>3.970000</speed>
</trkpt>
<trkpt lat="43.115772" lon="19.116512">
<ele>1486.0</ele>
<time>2012-05-01T12:21:39Z</time>
<desc>lat.=43.115772, lon.=19.116512, Alt.=1493.547852m. Speed=8.064000m/h.</desc>
<speed>2.240000</speed>
</trkpt>
<trkpt lat="43.116337" lon="19.114100">
<ele>1480.0</ele>
<time>2012-05-01T12:22:24Z</time>
<desc>lat.=43.116337, lon.=19.114100, Alt.=1484.391602m. Speed=35.712002m/h.</desc>
<speed>9.920001</speed>
</trkpt>
<trkpt lat="43.117599" lon="19.113010">
<ele>1482.4</ele>
<time>2012-05-01T12:22:59Z</time>
<desc>lat.=43.117599, lon.=19.113010, Alt.=1485.860352m. Speed=7.596000m/h.</desc>
<speed>2.110000</speed>
</trkpt>
<trkpt lat="43.117874" lon="19.112465">
<ele>1489.8</ele>
<time>2012-05-01T12:23:24Z</time>
<desc>lat.=43.117874, lon.=19.112465, Alt.=1495.797852m. Speed=9.576000m/h.</desc>
<speed>2.660000</speed>
</trkpt>
<trkpt lat="43.118778" lon="19.111509">
<ele>1493.1</ele>
<time>2012-05-01T12:24:04Z</time>
<desc>lat.=43.118778, lon.=19.111509, Alt.=1497.360352m. Speed=12.204000m/h.</desc>
<speed>3.390000</speed>
</trkpt>
<trkpt lat="43.119781" lon="19.109818">
<ele>1498.2</ele>
<time>2012-05-01T12:25:14Z</time>
<desc>lat.=43.119781, lon.=19.109818, Alt.=1499.485352m. Speed=6.912000m/h.</desc>
<speed>1.920000</speed>
</trkpt>
<trkpt lat="43.121502" lon="19.109240">
<ele>1512.8</ele>
<time>2012-05-01T12:28:44Z</time>
<desc>lat.=43.121502, lon.=19.109240, Alt.=1521.891602m. Speed=4.284000m/h.</desc>
<speed>1.190000</speed>
</trkpt>
<trkpt lat="43.121468" lon="19.108931">
<ele>1516.3</ele>
<time>2012-05-01T12:29:39Z</time>
<desc>lat.=43.121468, lon.=19.108931, Alt.=1520.172852m. Speed=0.072000m/h.</desc>
<speed>0.020000</speed>
</trkpt>
<trkpt lat="43.120693" lon="19.108538">
<ele>1519.7</ele>
<time>2012-05-01T12:30:44Z</time>
<desc>lat.=43.120693, lon.=19.108538, Alt.=1523.172852m. Speed=11.448000m/h.</desc>
<speed>3.180000</speed>
</trkpt>
<trkpt lat="43.120724" lon="19.107729">
<ele>1520.4</ele>
<time>2012-05-01T12:31:04Z</time>
<desc>lat.=43.120724, lon.=19.107729, Alt.=1525.141602m. Speed=17.351999m/h.</desc>
<speed>4.820000</speed>
</trkpt>
<trkpt lat="43.121124" lon="19.107279">
<ele>1518.3</ele>
<time>2012-05-01T12:31:14Z</time>
<desc>lat.=43.121124, lon.=19.107279, Alt.=1522.797852m. Speed=22.356001m/h.</desc>
<speed>6.210000</speed>
</trkpt>
<trkpt lat="43.121811" lon="19.106974">
<ele>1515.4</ele>
<time>2012-05-01T12:31:29Z</time>
<desc>lat.=43.121811, lon.=19.106974, Alt.=1520.954102m. Speed=24.768000m/h.</desc>
<speed>6.880000</speed>
</trkpt>
<trkpt lat="43.122604" lon="19.105448">
<ele>1510.5</ele>
<time>2012-05-01T12:31:49Z</time>
<desc>lat.=43.122604, lon.=19.105448, Alt.=1516.891602m. Speed=26.496000m/h.</desc>
<speed>7.360000</speed>
</trkpt>
<trkpt lat="43.122940" lon="19.103924">
<ele>1509.2</ele>
<time>2012-05-01T12:32:09Z</time>
<desc>lat.=43.122940, lon.=19.103924, Alt.=1514.829102m. Speed=13.356000m/h.</desc>
<speed>3.710000</speed>
</trkpt>
<trkpt lat="43.123539" lon="19.102961">
<ele>1511.2</ele>
<time>2012-05-01T12:32:54Z</time>
<desc>lat.=43.123539, lon.=19.102961, Alt.=1521.016602m. Speed=8.712000m/h.</desc>
<speed>2.420000</speed>
</trkpt>
<trkpt lat="43.123837" lon="19.101852">
<ele>1522.6</ele>
<time>2012-05-01T12:33:59Z</time>
<desc>lat.=43.123837, lon.=19.101852, Alt.=1537.329102m. Speed=0.108000m/h.</desc>
<speed>0.030000</speed>
</trkpt>
<trkpt lat="43.124329" lon="19.101273">
<ele>1535.8</ele>
<time>2012-05-01T12:35:34Z</time>
<desc>lat.=43.124329, lon.=19.101273, Alt.=1558.891602m. Speed=2.052000m/h.</desc>
<speed>0.570000</speed>
</trkpt>
<trkpt lat="43.124535" lon="19.100340">
<ele>1544.0</ele>
<time>2012-05-01T12:36:49Z</time>
<desc>lat.=43.124535, lon.=19.100340, Alt.=1548.297852m. Speed=0.000000m/h.</desc>
<speed>0.000000</speed>
</trkpt>
<trkpt lat="43.125664" lon="19.098360">
<ele>1551.3</ele>
<time>2012-05-01T12:41:19Z</time>
<desc>lat.=43.125664, lon.=19.098360, Alt.=1560.391602m. Speed=4.140000m/h.</desc>
<speed>1.150000</speed>
</trkpt>
<trkpt lat="43.126911" lon="19.097839">
<ele>1565.0</ele>
<time>2012-05-01T12:45:24Z</time>
<desc>lat.=43.126911, lon.=19.097839, Alt.=1574.610352m. Speed=0.828000m/h.</desc>
<speed>0.230000</speed>
</trkpt>
<trkpt lat="43.128929" lon="19.097521">
<ele>1582.6</ele>
<time>2012-05-01T12:50:44Z</time>
<desc>lat.=43.128929, lon.=19.097521, Alt.=1602.422852m. Speed=2.556000m/h.</desc>
<speed>0.710000</speed>
</trkpt>
<trkpt lat="43.129810" lon="19.098356">
<ele>1583.2</ele>
<time>2012-05-01T12:53:19Z</time>
<desc>lat.=43.129810, lon.=19.098356, Alt.=1600.797852m. Speed=3.384000m/h.</desc>
<speed>0.940000</speed>
</trkpt>
<trkpt lat="43.131207" lon="19.099024">
<ele>1577.0</ele>
<time>2012-05-01T12:56:19Z</time>
<desc>lat.=43.131207, lon.=19.099024, Alt.=1587.922852m. Speed=2.700000m/h.</desc>
<speed>0.750000</speed>
</trkpt>
<trkpt lat="43.132683" lon="19.100220">
<ele>1576.0</ele>
<time>2012-05-01T12:59:49Z</time>
<desc>lat.=43.132683, lon.=19.100220, Alt.=1580.204102m. Speed=3.672000m/h.</desc>
<speed>1.020000</speed>
</trkpt>
<trkpt lat="43.134312" lon="19.100655">
<ele>1566.8</ele>
<time>2012-05-01T13:03:04Z</time>
<desc>lat.=43.134312, lon.=19.100655, Alt.=1577.641602m. Speed=0.036000m/h.</desc>
<speed>0.010000</speed>
</trkpt>
<trkpt lat="43.136333" lon="19.098289">
<ele>1562.4</ele>
<time>2012-05-01T13:10:14Z</time>
<desc>lat.=43.136333, lon.=19.098289, Alt.=1577.079102m. Speed=3.168000m/h.</desc>
<speed>0.880000</speed>
</trkpt>
<trkpt lat="43.137577" lon="19.098158">
<ele>1554.8</ele>
<time>2012-05-01T13:12:59Z</time>
<desc>lat.=43.137577, lon.=19.098158, Alt.=1567.797852m. Speed=0.432000m/h.</desc>
<speed>0.120000</speed>
</trkpt>
<trkpt lat="43.137486" lon="19.097994">
<ele>1554.7</ele>
<time>2012-05-01T13:13:29Z</time>
<desc>lat.=43.137486, lon.=19.097994, Alt.=1566.922852m. Speed=0.504000m/h.</desc>
<speed>0.140000</speed>
</trkpt>
<trkpt lat="43.137726" lon="19.098236">
<ele>1553.3</ele>
<time>2012-05-01T13:15:19Z</time>
<desc>lat.=43.137726, lon.=19.098236, Alt.=1568.797852m. Speed=3.096000m/h.</desc>
<speed>0.860000</speed>
</trkpt>
<trkpt lat="43.138283" lon="19.097992">
<ele>1543.5</ele>
<time>2012-05-01T13:15:59Z</time>
<desc>lat.=43.138283, lon.=19.097992, Alt.=1575.079102m. Speed=1.944000m/h.</desc>
<speed>0.540000</speed>
</trkpt>
<trkpt lat="43.140797" lon="19.096304">
<ele>1503.5</ele>
<time>2012-05-01T13:21:04Z</time>
<desc>lat.=43.140797, lon.=19.096304, Alt.=1576.422852m. Speed=2.772000m/h.</desc>
<speed>0.770000</speed>
</trkpt>
<trkpt lat="43.141865" lon="19.096748">
<ele>1493.8</ele>
<time>2012-05-01T13:23:24Z</time>
<desc>lat.=43.141865, lon.=19.096748, Alt.=1510.891602m. Speed=1.404000m/h.</desc>
<speed>0.390000</speed>
</trkpt>
<trkpt lat="43.142796" lon="19.096413">
<ele>1474.9</ele>
<time>2012-05-01T13:26:14Z</time>
<desc>lat.=43.142796, lon.=19.096413, Alt.=1497.516602m. Speed=2.088000m/h.</desc>
<speed>0.580000</speed>
</trkpt>
<trkpt lat="43.142731" lon="19.096216">
<ele>1471.9</ele>
<time>2012-05-01T13:27:29Z</time>
<desc>lat.=43.142731, lon.=19.096216, Alt.=1505.204102m. Speed=1.116000m/h.</desc>
<speed>0.310000</speed>
</trkpt>
<trkpt lat="43.142876" lon="19.096052">
<ele>1467.3</ele>
<time>2012-05-01T13:27:54Z</time>
<desc>lat.=43.142876, lon.=19.096052, Alt.=1508.266602m. Speed=4.284000m/h.</desc>
<speed>1.190000</speed>
</trkpt>
<trkpt lat="43.143547" lon="19.095900">
<ele>1439.0</ele>
<time>2012-05-01T13:29:04Z</time>
<desc>lat.=43.143547, lon.=19.095900, Alt.=1517.266602m. Speed=3.276000m/h.</desc>
<speed>0.910000</speed>
</trkpt>
<trkpt lat="43.143524" lon="19.095690">
<ele>1432.6</ele>
<time>2012-05-01T13:29:29Z</time>
<desc>lat.=43.143524, lon.=19.095690, Alt.=1516.329102m. Speed=1.656000m/h.</desc>
<speed>0.460000</speed>
</trkpt>
<trkpt lat="43.143982" lon="19.095882">
<ele>1421.8</ele>
<time>2012-05-01T13:29:49Z</time>
<desc>lat.=43.143982, lon.=19.095882, Alt.=1505.797852m. Speed=10.440000m/h.</desc>
<speed>2.900000</speed>
</trkpt>
<trkpt lat="43.144257" lon="19.095629">
<ele>1421.5</ele>
<time>2012-05-01T13:29:59Z</time>
<desc>lat.=43.144257, lon.=19.095629, Alt.=1500.985352m. Speed=9.684000m/h.</desc>
<speed>2.690000</speed>
</trkpt>
<trkpt lat="43.144081" lon="19.094942">
<ele>1421.5</ele>
<time>2012-05-01T13:30:44Z</time>
<desc>lat.=43.144081, lon.=19.094942, Alt.=1468.047852m. Speed=3.672000m/h.</desc>
<speed>1.020000</speed>
</trkpt>
<trkpt lat="43.144230" lon="19.094477">
<ele>1422.7</ele>
<time>2012-05-01T13:31:34Z</time>
<desc>lat.=43.144230, lon.=19.094477, Alt.=1451.079102m. Speed=0.000000m/h.</desc>
<speed>0.000000</speed>
</trkpt>
<trkpt lat="43.143867" lon="19.095140">
<ele>1421.5</ele>
<time>2012-05-01T13:49:34Z</time>
<desc>lat.=43.143867, lon.=19.095140, Alt.=1437.610352m. Speed=6.228000m/h.</desc>
<speed>1.730000</speed>
</trkpt>
<trkpt lat="43.143795" lon="19.095638">
<ele>1421.5</ele>
<time>2012-05-01T13:49:54Z</time>
<desc>lat.=43.143795, lon.=19.095638, Alt.=1434.297852m. Speed=7.848000m/h.</desc>
<speed>2.180000</speed>
</trkpt>
<trkpt lat="43.144005" lon="19.096601">
<ele>1428.7</ele>
<time>2012-05-01T13:50:54Z</time>
<desc>lat.=43.144005, lon.=19.096601, Alt.=1441.016602m. Speed=1.188000m/h.</desc>
<speed>0.330000</speed>
</trkpt>
<trkpt lat="43.145481" lon="19.097425">
<ele>1429.7</ele>
<time>2012-05-01T13:52:34Z</time>
<desc>lat.=43.145481, lon.=19.097425, Alt.=1447.954102m. Speed=7.560000m/h.</desc>
<speed>2.100000</speed>
</trkpt>
<trkpt lat="43.146000" lon="19.097445">
<ele>1448.6</ele>
<time>2012-05-01T13:52:59Z</time>
<desc>lat.=43.146000, lon.=19.097445, Alt.=1449.704102m. Speed=6.084000m/h.</desc>
<speed>1.690000</speed>
</trkpt>
<trkpt lat="43.146381" lon="19.096998">
<ele>1443.9</ele>
<time>2012-05-01T13:54:04Z</time>
<desc>lat.=43.146381, lon.=19.096998, Alt.=1447.922852m. Speed=1.440000m/h.</desc>
<speed>0.400000</speed>
</trkpt>
<trkpt lat="43.146313" lon="19.096905">
<ele>1438.6</ele>
<time>2012-05-01T13:54:24Z</time>
<desc>lat.=43.146313, lon.=19.096905, Alt.=1447.516602m. Speed=0.864000m/h.</desc>
<speed>0.240000</speed>
</trkpt>
<trkpt lat="43.146526" lon="19.097006">
<ele>1447.6</ele>
<time>2012-05-01T13:54:39Z</time>
<desc>lat.=43.146526, lon.=19.097006, Alt.=1447.735352m. Speed=4.428000m/h.</desc>
<speed>1.230000</speed>
</trkpt>
<trkpt lat="43.146595" lon="19.097309">
<ele>1449.3</ele>
<time>2012-05-01T13:54:49Z</time>
<desc>lat.=43.146595, lon.=19.097309, Alt.=1446.391602m. Speed=6.984000m/h.</desc>
<speed>1.940000</speed>
</trkpt>
<trkpt lat="43.147015" lon="19.097513">
<ele>1434.3</ele>
<time>2012-05-01T13:55:39Z</time>
<desc>lat.=43.147015, lon.=19.097513, Alt.=1438.141602m. Speed=0.828000m/h.</desc>
<speed>0.230000</speed>
</trkpt>
<trkpt lat="43.148006" lon="19.097330">
<ele>1438.8</ele>
<time>2012-05-01T13:57:44Z</time>
<desc>lat.=43.148006, lon.=19.097330, Alt.=1453.829102m. Speed=12.240000m/h.</desc>
<speed>3.400000</speed>
</trkpt>
<trkpt lat="43.148773" lon="19.099072">
<ele>1446.3</ele>
<time>2012-05-01T13:58:34Z</time>
<desc>lat.=43.148773, lon.=19.099072, Alt.=1453.579102m. Speed=20.448000m/h.</desc>
<speed>5.680000</speed>
</trkpt>
<trkpt lat="43.151226" lon="19.101740">
<ele>1429.7</ele>
<time>2012-05-01T13:59:29Z</time>
<desc>lat.=43.151226, lon.=19.101740, Alt.=1448.735352m. Speed=21.672001m/h.</desc>
<speed>6.020000</speed>
</trkpt>
<trkpt lat="43.151577" lon="19.101698">
<ele>1427.2</ele>
<time>2012-05-01T13:59:34Z</time>
<desc>lat.=43.151577, lon.=19.101698, Alt.=1447.360352m. Speed=27.719999m/h.</desc>
<speed>7.700000</speed>
</trkpt>
<trkpt lat="43.152103" lon="19.101076">
<ele>1425.6</ele>
<time>2012-05-01T13:59:44Z</time>
<desc>lat.=43.152103, lon.=19.101076, Alt.=1445.797852m. Speed=23.544001m/h.</desc>
<speed>6.540000</speed>
</trkpt>
<trkpt lat="43.152714" lon="19.100916">
<ele>1418.8</ele>
<time>2012-05-01T13:59:54Z</time>
<desc>lat.=43.152714, lon.=19.100916, Alt.=1448.016602m. Speed=23.219999m/h.</desc>
<speed>6.450000</speed>
</trkpt>
<trkpt lat="43.153275" lon="19.100878">
<ele>1423.6</ele>
<time>2012-05-01T14:00:04Z</time>
<desc>lat.=43.153275, lon.=19.100878, Alt.=1450.204102m. Speed=21.959999m/h.</desc>
<speed>6.100000</speed>
</trkpt>
<trkpt lat="43.153854" lon="19.101286">
<ele>1422.1</ele>
<time>2012-05-01T14:00:19Z</time>
<desc>lat.=43.153854, lon.=19.101286, Alt.=1450.079102m. Speed=16.955999m/h.</desc>
<speed>4.710000</speed>
</trkpt>
<trkpt lat="43.154350" lon="19.102083">
<ele>1419.2</ele>
<time>2012-05-01T14:00:34Z</time>
<desc>lat.=43.154350, lon.=19.102083, Alt.=1451.829102m. Speed=21.455999m/h.</desc>
<speed>5.960000</speed>
</trkpt>
<trkpt lat="43.154472" lon="19.103088">
<ele>1418.4</ele>
<time>2012-05-01T14:00:49Z</time>
<desc>lat.=43.154472, lon.=19.103088, Alt.=1453.360352m. Speed=18.108000m/h.</desc>
<speed>5.030000</speed>
</trkpt>
<trkpt lat="43.154797" lon="19.103758">
<ele>1419.3</ele>
<time>2012-05-01T14:00:59Z</time>
<desc>lat.=43.154797, lon.=19.103758, Alt.=1448.454102m. Speed=21.563999m/h.</desc>
<speed>5.990000</speed>
</trkpt>
<trkpt lat="43.154884" lon="19.104431">
<ele>1417.8</ele>
<time>2012-05-01T14:01:09Z</time>
<desc>lat.=43.154884, lon.=19.104431, Alt.=1445.797852m. Speed=21.348000m/h.</desc>
<speed>5.930000</speed>
</trkpt>
<trkpt lat="43.154255" lon="19.106207">
<ele>1427.8</ele>
<time>2012-05-01T14:01:39Z</time>
<desc>lat.=43.154255, lon.=19.106207, Alt.=1434.579102m. Speed=22.032000m/h.</desc>
<speed>6.120000</speed>
</trkpt>
<trkpt lat="43.153255" lon="19.106878">
<ele>1428.7</ele>
<time>2012-05-01T14:02:09Z</time>
<desc>lat.=43.153255, lon.=19.106878, Alt.=1432.266602m. Speed=18.431999m/h.</desc>
<speed>5.120000</speed>
</trkpt>
<trkpt lat="43.153126" lon="19.107222">
<ele>1433.8</ele>
<time>2012-05-01T14:02:14Z</time>
<desc>lat.=43.153126, lon.=19.107222, Alt.=1433.297852m. Speed=25.236000m/h.</desc>
<speed>7.010000</speed>
</trkpt>
<trkpt lat="43.153221" lon="19.108238">
<ele>1430.1</ele>
<time>2012-05-01T14:02:29Z</time>
<desc>lat.=43.153221, lon.=19.108238, Alt.=1428.860352m. Speed=18.323999m/h.</desc>
<speed>5.090000</speed>
</trkpt>
<trkpt lat="43.152973" lon="19.109093">
<ele>1439.8</ele>
<time>2012-05-01T14:02:44Z</time>
<desc>lat.=43.152973, lon.=19.109093, Alt.=1430.579102m. Speed=17.676001m/h.</desc>
<speed>4.910000</speed>
</trkpt>
<trkpt lat="43.153042" lon="19.109688">
<ele>1439.9</ele>
<time>2012-05-01T14:02:59Z</time>
<desc>lat.=43.153042, lon.=19.109688, Alt.=1432.204102m. Speed=11.340000m/h.</desc>
<speed>3.150000</speed>
</trkpt>
<trkpt lat="43.152912" lon="19.110624">
<ele>1451.7</ele>
<time>2012-05-01T14:03:24Z</time>
<desc>lat.=43.152912, lon.=19.110624, Alt.=1442.016602m. Speed=13.428000m/h.</desc>
<speed>3.730000</speed>
</trkpt>
<trkpt lat="43.153488" lon="19.113096">
<ele>1449.8</ele>
<time>2012-05-01T14:04:19Z</time>
<desc>lat.=43.153488, lon.=19.113096, Alt.=1433.985352m. Speed=15.444000m/h.</desc>
<speed>4.290000</speed>
</trkpt>
<trkpt lat="43.153992" lon="19.114506">
<ele>1443.0</ele>
<time>2012-05-01T14:04:44Z</time>
<desc>lat.=43.153992, lon.=19.114506, Alt.=1435.954102m. Speed=11.124000m/h.</desc>
<speed>3.090000</speed>
</trkpt>
<trkpt lat="43.154369" lon="19.116957">
<ele>1447.4</ele>
<time>2012-05-01T14:05:34Z</time>
<desc>lat.=43.154369, lon.=19.116957, Alt.=1431.454102m. Speed=16.704000m/h.</desc>
<speed>4.640000</speed>
</trkpt>
<trkpt lat="43.155094" lon="19.119293">
<ele>1447.7</ele>
<time>2012-05-01T14:06:14Z</time>
<desc>lat.=43.155094, lon.=19.119293, Alt.=1442.204102m. Speed=21.743999m/h.</desc>
<speed>6.040000</speed>
</trkpt>
<trkpt lat="43.155098" lon="19.120623">
<ele>1441.6</ele>
<time>2012-05-01T14:06:34Z</time>
<desc>lat.=43.155098, lon.=19.120623, Alt.=1444.766602m. Speed=5.580000m/h.</desc>
<speed>1.550000</speed>
</trkpt>
<trkpt lat="43.154930" lon="19.120907">
<ele>1443.1</ele>
<time>2012-05-01T14:07:14Z</time>
<desc>lat.=43.154930, lon.=19.120907, Alt.=1450.141602m. Speed=1.404000m/h.</desc>
<speed>0.390000</speed>
</trkpt>
<trkpt lat="43.157059" lon="19.121485">
<ele>1435.9</ele>
<time>2012-05-01T14:09:04Z</time>
<desc>lat.=43.157059, lon.=19.121485, Alt.=1443.016602m. Speed=4.932000m/h.</desc>
<speed>1.370000</speed>
</trkpt>
<trkpt lat="43.155128" lon="19.120905">
<ele>1441.1</ele>
<time>2012-05-01T14:10:24Z</time>
<desc>lat.=43.155128, lon.=19.120905, Alt.=1452.985352m. Speed=12.996000m/h.</desc>
<speed>3.610000</speed>
</trkpt>
<trkpt lat="43.154797" lon="19.122229">
<ele>1444.3</ele>
<time>2012-05-01T14:10:54Z</time>
<desc>lat.=43.154797, lon.=19.122229, Alt.=1455.110352m. Speed=12.780000m/h.</desc>
<speed>3.550000</speed>
</trkpt>
<trkpt lat="43.154343" lon="19.122501">
<ele>1449.2</ele>
<time>2012-05-01T14:11:44Z</time>
<desc>lat.=43.154343, lon.=19.122501, Alt.=1456.954102m. Speed=0.468000m/h.</desc>
<speed>0.130000</speed>
</trkpt>
<trkpt lat="43.154411" lon="19.122240">
<ele>1448.5</ele>
<time>2012-05-01T14:41:39Z</time>
<desc>lat.=43.154411, lon.=19.122240, Alt.=1457.266602m. Speed=6.948000m/h.</desc>
<speed>1.930000</speed>
</trkpt>
<trkpt lat="43.154686" lon="19.122320">
<ele>1445.5</ele>
<time>2012-05-01T14:41:49Z</time>
<desc>lat.=43.154686, lon.=19.122320, Alt.=1456.047852m. Speed=8.892000m/h.</desc>
<speed>2.470000</speed>
</trkpt>
<trkpt lat="43.154812" lon="19.122166">
<ele>1444.3</ele>
<time>2012-05-01T14:41:54Z</time>
<desc>lat.=43.154812, lon.=19.122166, Alt.=1458.141602m. Speed=15.336000m/h.</desc>
<speed>4.260000</speed>
</trkpt>
<trkpt lat="43.155041" lon="19.121086">
<ele>1442.7</ele>
<time>2012-05-01T14:42:59Z</time>
<desc>lat.=43.155041, lon.=19.121086, Alt.=1466.422852m. Speed=7.776000m/h.</desc>
<speed>2.160000</speed>
</trkpt>
<trkpt lat="43.155346" lon="19.121046">
<ele>1442.5</ele>
<time>2012-05-01T14:43:14Z</time>
<desc>lat.=43.155346, lon.=19.121046, Alt.=1457.797852m. Speed=5.328000m/h.</desc>
<speed>1.480000</speed>
</trkpt>
<trkpt lat="43.155064" lon="19.120567">
<ele>1442.1</ele>
<time>2012-05-01T14:43:44Z</time>
<desc>lat.=43.155064, lon.=19.120567, Alt.=1452.766602m. Speed=7.740000m/h.</desc>
<speed>2.150000</speed>
</trkpt>
<trkpt lat="43.155220" lon="19.119448">
<ele>1446.4</ele>
<time>2012-05-01T14:44:09Z</time>
<desc>lat.=43.155220, lon.=19.119448, Alt.=1464.735352m. Speed=13.680000m/h.</desc>
<speed>3.800000</speed>
</trkpt>
<trkpt lat="43.154568" lon="19.117500">
<ele>1447.6</ele>
<time>2012-05-01T14:44:54Z</time>
<desc>lat.=43.154568, lon.=19.117500, Alt.=1451.735352m. Speed=17.136000m/h.</desc>
<speed>4.760000</speed>
</trkpt>
<trkpt lat="43.154408" lon="19.116564">
<ele>1445.0</ele>
<time>2012-05-01T14:45:44Z</time>
<desc>lat.=43.154408, lon.=19.116564, Alt.=1450.922852m. Speed=0.468000m/h.</desc>
<speed>0.130000</speed>
</trkpt>
<trkpt lat="43.154285" lon="19.116596">
<ele>1447.4</ele>
<time>2012-05-01T14:46:49Z</time>
<desc>lat.=43.154285, lon.=19.116596, Alt.=1451.547852m. Speed=0.504000m/h.</desc>
<speed>0.140000</speed>
</trkpt>
<trkpt lat="43.154453" lon="19.116699">
<ele>1444.8</ele>
<time>2012-05-01T14:49:14Z</time>
<desc>lat.=43.154453, lon.=19.116699, Alt.=1452.985352m. Speed=0.684000m/h.</desc>
<speed>0.190000</speed>
</trkpt>
<trkpt lat="43.154198" lon="19.116793">
<ele>1450.0</ele>
<time>2012-05-01T14:49:54Z</time>
<desc>lat.=43.154198, lon.=19.116793, Alt.=1454.141602m. Speed=1.476000m/h.</desc>
<speed>0.410000</speed>
</trkpt>
<trkpt lat="43.154362" lon="19.116625">
<ele>1446.2</ele>
<time>2012-05-01T14:50:54Z</time>
<desc>lat.=43.154362, lon.=19.116625, Alt.=1453.766602m. Speed=0.108000m/h.</desc>
<speed>0.030000</speed>
</trkpt>
<trkpt lat="43.155159" lon="19.119436">
<ele>1446.8</ele>
<time>2012-05-01T14:52:14Z</time>
<desc>lat.=43.155159, lon.=19.119436, Alt.=1449.079102m. Speed=17.496000m/h.</desc>
<speed>4.860000</speed>
</trkpt>
<trkpt lat="43.154728" lon="19.122192">
<ele>1445.3</ele>
<time>2012-05-01T14:53:04Z</time>
<desc>lat.=43.154728, lon.=19.122192, Alt.=1447.016602m. Speed=16.271999m/h.</desc>
<speed>4.520000</speed>
</trkpt>
<trkpt lat="43.154308" lon="19.122330">
<ele>1449.9</ele>
<time>2012-05-01T16:02:14Z</time>
<desc>lat.=43.154308, lon.=19.122330, Alt.=1460.422852m. Speed=0.036000m/h.</desc>
<speed>0.010000</speed>
</trkpt>
<trkpt lat="43.154678" lon="19.122231">
<ele>1445.9</ele>
<time>2012-05-01T16:02:54Z</time>
<desc>lat.=43.154678, lon.=19.122231, Alt.=1470.954102m. Speed=12.420000m/h.</desc>
<speed>3.450000</speed>
</trkpt>
<trkpt lat="43.154976" lon="19.121475">
<ele>1444.5</ele>
<time>2012-05-01T16:03:14Z</time>
<desc>lat.=43.154976, lon.=19.121475, Alt.=1494.391602m. Speed=13.608000m/h.</desc>
<speed>3.780000</speed>
</trkpt>
<trkpt lat="43.156521" lon="19.121984">
<ele>1446.1</ele>
<time>2012-05-01T16:03:44Z</time>
<desc>lat.=43.156521, lon.=19.121984, Alt.=1520.016602m. Speed=25.524000m/h.</desc>
<speed>7.090000</speed>
</trkpt>
<trkpt lat="43.157131" lon="19.122437">
<ele>1441.4</ele>
<time>2012-05-01T16:03:54Z</time>
<desc>lat.=43.157131, lon.=19.122437, Alt.=1527.516602m. Speed=29.087999m/h.</desc>
<speed>8.080000</speed>
</trkpt>
<trkpt lat="43.158054" lon="19.124105">
<ele>1446.7</ele>
<time>2012-05-01T16:04:19Z</time>
<desc>lat.=43.158054, lon.=19.124105, Alt.=1521.110352m. Speed=21.455999m/h.</desc>
<speed>5.960000</speed>
</trkpt>
<trkpt lat="43.158367" lon="19.125116">
<ele>1445.2</ele>
<time>2012-05-01T16:06:04Z</time>
<desc>lat.=43.158367, lon.=19.125116, Alt.=1524.704102m. Speed=21.924000m/h.</desc>
<speed>6.090000</speed>
</trkpt>
<trkpt lat="43.158188" lon="19.126053">
<ele>1446.4</ele>
<time>2012-05-01T16:06:14Z</time>
<desc>lat.=43.158188, lon.=19.126053, Alt.=1526.110352m. Speed=32.400002m/h.</desc>
<speed>9.000000</speed>
</trkpt>
<trkpt lat="43.158287" lon="19.126560">
<ele>1451.5</ele>
<time>2012-05-01T16:06:19Z</time>
<desc>lat.=43.158287, lon.=19.126560, Alt.=1526.641602m. Speed=29.988001m/h.</desc>
<speed>8.330000</speed>
</trkpt>
<trkpt lat="43.158443" lon="19.126991">
<ele>1455.4</ele>
<time>2012-05-01T16:06:24Z</time>
<desc>lat.=43.158443, lon.=19.126991, Alt.=1528.704102m. Speed=20.844000m/h.</desc>
<speed>5.790000</speed>
</trkpt>
<trkpt lat="43.158798" lon="19.127140">
<ele>1446.8</ele>
<time>2012-05-01T16:06:59Z</time>
<desc>lat.=43.158798, lon.=19.127140, Alt.=1537.547852m. Speed=16.416000m/h.</desc>
<speed>4.560000</speed>
</trkpt>
<trkpt lat="43.159130" lon="19.127684">
<ele>1440.8</ele>
<time>2012-05-01T16:07:09Z</time>
<desc>lat.=43.159130, lon.=19.127684, Alt.=1535.266602m. Speed=28.224001m/h.</desc>
<speed>7.840000</speed>
</trkpt>
<trkpt lat="43.159500" lon="19.128702">
<ele>1434.7</ele>
<time>2012-05-01T16:07:19Z</time>
<desc>lat.=43.159500, lon.=19.128702, Alt.=1530.672852m. Speed=38.736000m/h.</desc>
<speed>10.760000</speed>
</trkpt>
<trkpt lat="43.159271" lon="19.130388">
<ele>1430.4</ele>
<time>2012-05-01T16:07:29Z</time>
<desc>lat.=43.159271, lon.=19.130388, Alt.=1517.954102m. Speed=47.952000m/h.</desc>
<speed>13.320000</speed>
</trkpt>
<trkpt lat="43.159275" lon="19.131289">
<ele>1418.2</ele>
<time>2012-05-01T16:07:34Z</time>
<desc>lat.=43.159275, lon.=19.131289, Alt.=1516.579102m. Speed=50.112000m/h.</desc>
<speed>13.920000</speed>
</trkpt>
<trkpt lat="43.159462" lon="19.132082">
<ele>1413.1</ele>
<time>2012-05-01T16:07:39Z</time>
<desc>lat.=43.159462, lon.=19.132082, Alt.=1514.610352m. Speed=50.652000m/h.</desc>
<speed>14.070000</speed>
</trkpt>
<trkpt lat="43.160717" lon="19.135246">
<ele>1408.2</ele>
<time>2012-05-01T16:08:04Z</time>
<desc>lat.=43.160717, lon.=19.135246, Alt.=1497.735352m. Speed=38.304001m/h.</desc>
<speed>10.640000</speed>
</trkpt>
<trkpt lat="43.161560" lon="19.136448">
<ele>1406.4</ele>
<time>2012-05-01T16:08:19Z</time>
<desc>lat.=43.161560, lon.=19.136448, Alt.=1494.954102m. Speed=27.323999m/h.</desc>
<speed>7.590000</speed>
</trkpt>
<trkpt lat="43.161709" lon="19.137922">
<ele>1406.8</ele>
<time>2012-05-01T16:08:24Z</time>
<desc>lat.=43.161709, lon.=19.137922, Alt.=1494.485352m. Speed=27.035999m/h.</desc>
<speed>7.510000</speed>
</trkpt>
<trkpt lat="43.162888" lon="19.140091">
<ele>1402.7</ele>
<time>2012-05-01T16:08:54Z</time>
<desc>lat.=43.162888, lon.=19.140091, Alt.=1487.360352m. Speed=28.584000m/h.</desc>
<speed>7.940000</speed>
</trkpt>
<trkpt lat="43.162975" lon="19.144030">
<ele>1386.5</ele>
<time>2012-05-01T16:09:19Z</time>
<desc>lat.=43.162975, lon.=19.144030, Alt.=1453.641602m. Speed=59.040001m/h.</desc>
<speed>16.400000</speed>
</trkpt>
<trkpt lat="43.163876" lon="19.150175">
<ele>1361.8</ele>
<time>2012-05-01T16:09:54Z</time>
<desc>lat.=43.163876, lon.=19.150175, Alt.=1398.641602m. Speed=41.652000m/h.</desc>
<speed>11.570000</speed>
</trkpt>
<trkpt lat="43.163780" lon="19.155655">
<ele>1346.9</ele>
<time>2012-05-01T16:10:34Z</time>
<desc>lat.=43.163780, lon.=19.155655, Alt.=1355.672852m. Speed=43.703999m/h.</desc>
<speed>12.140000</speed>
</trkpt>
<trkpt lat="43.164463" lon="19.159407">
<ele>1339.8</ele>
<time>2012-05-01T16:10:59Z</time>
<desc>lat.=43.164463, lon.=19.159407, Alt.=1345.891602m. Speed=39.636002m/h.</desc>
<speed>11.010000</speed>
</trkpt>
<trkpt lat="43.164772" lon="19.163994">
<ele>1334.9</ele>
<time>2012-05-01T16:11:34Z</time>
<desc>lat.=43.164772, lon.=19.163994, Alt.=1340.766602m. Speed=36.576000m/h.</desc>
<speed>10.160000</speed>
</trkpt>
<trkpt lat="43.165154" lon="19.166910">
<ele>1332.6</ele>
<time>2012-05-01T16:11:59Z</time>
<desc>lat.=43.165154, lon.=19.166910, Alt.=1335.985352m. Speed=31.788000m/h.</desc>
<speed>8.830000</speed>
</trkpt>
<trkpt lat="43.164661" lon="19.174837">
<ele>1319.9</ele>
<time>2012-05-01T16:13:04Z</time>
<desc>lat.=43.164661, lon.=19.174837, Alt.=1321.766602m. Speed=30.096001m/h.</desc>
<speed>8.360000</speed>
</trkpt>
<trkpt lat="43.165176" lon="19.180279">
<ele>1307.8</ele>
<time>2012-05-01T16:13:49Z</time>
<desc>lat.=43.165176, lon.=19.180279, Alt.=1310.485352m. Speed=35.891998m/h.</desc>
<speed>9.970000</speed>
</trkpt>
<trkpt lat="43.165642" lon="19.182732">
<ele>1304.3</ele>
<time>2012-05-01T16:14:09Z</time>
<desc>lat.=43.165642, lon.=19.182732, Alt.=1318.922852m. Speed=39.708000m/h.</desc>
<speed>11.030000</speed>
</trkpt>
<trkpt lat="43.165134" lon="19.184381">
<ele>1311.9</ele>
<time>2012-05-01T16:14:24Z</time>
<desc>lat.=43.165134, lon.=19.184381, Alt.=1318.516602m. Speed=31.212000m/h.</desc>
<speed>8.670000</speed>
</trkpt>
<trkpt lat="43.164516" lon="19.187246">
<ele>1314.2</ele>
<time>2012-05-01T16:14:59Z</time>
<desc>lat.=43.164516, lon.=19.187246, Alt.=1310.704102m. Speed=20.916000m/h.</desc>
<speed>5.810000</speed>
</trkpt>
<trkpt lat="43.164001" lon="19.188782">
<ele>1314.8</ele>
<time>2012-05-01T16:16:24Z</time>
<desc>lat.=43.164001, lon.=19.188782, Alt.=1292.360352m. Speed=0.468000m/h.</desc>
<speed>0.130000</speed>
</trkpt>
<trkpt lat="43.164024" lon="19.189608">
<ele>1311.3</ele>
<time>2012-05-01T16:18:54Z</time>
<desc>lat.=43.164024, lon.=19.189608, Alt.=1306.329102m. Speed=20.052000m/h.</desc>
<speed>5.570000</speed>
</trkpt>
<trkpt lat="43.163692" lon="19.190990">
<ele>1315.1</ele>
<time>2012-05-01T16:19:19Z</time>
<desc>lat.=43.163692, lon.=19.190990, Alt.=1303.391602m. Speed=22.032000m/h.</desc>
<speed>6.120000</speed>
</trkpt>
<trkpt lat="43.162491" lon="19.198936">
<ele>1293.9</ele>
<time>2012-05-01T16:20:24Z</time>
<desc>lat.=43.162491, lon.=19.198936, Alt.=1274.110352m. Speed=25.992001m/h.</desc>
<speed>7.220000</speed>
</trkpt>
<trkpt lat="43.161453" lon="19.202839">
<ele>1290.0</ele>
<time>2012-05-01T16:21:04Z</time>
<desc>lat.=43.161453, lon.=19.202839, Alt.=1284.547852m. Speed=29.736000m/h.</desc>
<speed>8.260000</speed>
</trkpt>
<trkpt lat="43.159908" lon="19.206705">
<ele>1290.0</ele>
<time>2012-05-01T16:21:49Z</time>
<desc>lat.=43.159908, lon.=19.206705, Alt.=1281.360352m. Speed=30.455999m/h.</desc>
<speed>8.460000</speed>
</trkpt>
<trkpt lat="43.159340" lon="19.207529">
<ele>1288.2</ele>
<time>2012-05-01T16:21:59Z</time>
<desc>lat.=43.159340, lon.=19.207529, Alt.=1279.110352m. Speed=27.396000m/h.</desc>
<speed>7.610000</speed>
</trkpt>
<trkpt lat="43.158730" lon="19.209810">
<ele>1288.0</ele>
<time>2012-05-01T16:22:24Z</time>
<desc>lat.=43.158730, lon.=19.209810, Alt.=1270.235352m. Speed=30.384001m/h.</desc>
<speed>8.440000</speed>
</trkpt>
<trkpt lat="43.157944" lon="19.211164">
<ele>1291.9</ele>
<time>2012-05-01T16:22:39Z</time>
<desc>lat.=43.157944, lon.=19.211164, Alt.=1263.954102m. Speed=33.768002m/h.</desc>
<speed>9.380000</speed>
</trkpt>
<trkpt lat="43.157284" lon="19.211706">
<ele>1289.3</ele>
<time>2012-05-01T16:22:49Z</time>
<desc>lat.=43.157284, lon.=19.211706, Alt.=1259.016602m. Speed=26.568001m/h.</desc>
<speed>7.380000</speed>
</trkpt>
<trkpt lat="43.156643" lon="19.211691">
<ele>1298.1</ele>
<time>2012-05-01T16:23:04Z</time>
<desc>lat.=43.156643, lon.=19.211691, Alt.=1255.047852m. Speed=12.204000m/h.</desc>
<speed>3.390000</speed>
</trkpt>
<trkpt lat="43.156216" lon="19.212044">
<ele>1301.0</ele>
<time>2012-05-01T16:23:34Z</time>
<desc>lat.=43.156216, lon.=19.212044, Alt.=1266.360352m. Speed=5.256000m/h.</desc>
<speed>1.460000</speed>
</trkpt>
<trkpt lat="43.155750" lon="19.211983">
<ele>1314.2</ele>
<time>2012-05-01T16:23:49Z</time>
<desc>lat.=43.155750, lon.=19.211983, Alt.=1281.079102m. Speed=9.036000m/h.</desc>
<speed>2.510000</speed>
</trkpt>
<trkpt lat="43.154011" lon="19.212585">
<ele>1313.4</ele>
<time>2012-05-01T16:24:44Z</time>
<desc>lat.=43.154011, lon.=19.212585, Alt.=1335.329102m. Speed=11.916000m/h.</desc>
<speed>3.310000</speed>
</trkpt>
<trkpt lat="43.153027" lon="19.214750">
<ele>1303.5</ele>
<time>2012-05-01T16:25:14Z</time>
<desc>lat.=43.153027, lon.=19.214750, Alt.=1364.985352m. Speed=31.823999m/h.</desc>
<speed>8.840000</speed>
</trkpt>
<trkpt lat="43.150940" lon="19.216461">
<ele>1298.6</ele>
<time>2012-05-01T16:25:44Z</time>
<desc>lat.=43.150940, lon.=19.216461, Alt.=1367.329102m. Speed=35.063999m/h.</desc>
<speed>9.740000</speed>
</trkpt>
<trkpt lat="43.149345" lon="19.219166">
<ele>1293.7</ele>
<time>2012-05-01T16:26:09Z</time>
<desc>lat.=43.149345, lon.=19.219166, Alt.=1357.860352m. Speed=35.712002m/h.</desc>
<speed>9.920001</speed>
</trkpt>
<trkpt lat="43.147610" lon="19.220467">
<ele>1298.0</ele>
<time>2012-05-01T16:26:39Z</time>
<desc>lat.=43.147610, lon.=19.220467, Alt.=1338.704102m. Speed=23.219999m/h.</desc>
<speed>6.450000</speed>
</trkpt>
<trkpt lat="43.146751" lon="19.222433">
<ele>1301.8</ele>
<time>2012-05-01T16:27:04Z</time>
<desc>lat.=43.146751, lon.=19.222433, Alt.=1326.016602m. Speed=20.988001m/h.</desc>
<speed>5.830000</speed>
</trkpt>
<trkpt lat="43.145508" lon="19.223225">
<ele>1306.7</ele>
<time>2012-05-01T16:27:39Z</time>
<desc>lat.=43.145508, lon.=19.223225, Alt.=1334.922852m. Speed=14.724000m/h.</desc>
<speed>4.090000</speed>
</trkpt>
<trkpt lat="43.143948" lon="19.225386">
<ele>1297.6</ele>
<time>2012-05-01T16:28:14Z</time>
<desc>lat.=43.143948, lon.=19.225386, Alt.=1316.766602m. Speed=29.195999m/h.</desc>
<speed>8.110000</speed>
</trkpt>
<trkpt lat="43.143379" lon="19.226679">
<ele>1296.8</ele>
<time>2012-05-01T16:28:29Z</time>
<desc>lat.=43.143379, lon.=19.226679, Alt.=1313.641602m. Speed=32.363998m/h.</desc>
<speed>8.990000</speed>
</trkpt>
<trkpt lat="43.143257" lon="19.227793">
<ele>1298.1</ele>
<time>2012-05-01T16:28:39Z</time>
<desc>lat.=43.143257, lon.=19.227793, Alt.=1314.985352m. Speed=29.160000m/h.</desc>
<speed>8.100000</speed>
</trkpt>
<trkpt lat="43.143776" lon="19.230530">
<ele>1298.6</ele>
<time>2012-05-01T16:29:09Z</time>
<desc>lat.=43.143776, lon.=19.230530, Alt.=1314.735352m. Speed=27.936001m/h.</desc>
<speed>7.760000</speed>
</trkpt>
<trkpt lat="43.144341" lon="19.232660">
<ele>1301.0</ele>
<time>2012-05-01T16:29:39Z</time>
<desc>lat.=43.144341, lon.=19.232660, Alt.=1309.047852m. Speed=19.980000m/h.</desc>
<speed>5.550000</speed>
</trkpt>
<trkpt lat="43.144726" lon="19.233524">
<ele>1305.2</ele>
<time>2012-05-01T16:29:54Z</time>
<desc>lat.=43.144726, lon.=19.233524, Alt.=1311.485352m. Speed=11.196000m/h.</desc>
<speed>3.110000</speed>
</trkpt>
<trkpt lat="43.145348" lon="19.234213">
<ele>1306.9</ele>
<time>2012-05-01T16:30:19Z</time>
<desc>lat.=43.145348, lon.=19.234213, Alt.=1319.485352m. Speed=13.680000m/h.</desc>
<speed>3.800000</speed>
</trkpt>
<trkpt lat="43.147717" lon="19.235527">
<ele>1328.7</ele>
<time>2012-05-01T16:32:09Z</time>
<desc>lat.=43.147717, lon.=19.235527, Alt.=1339.829102m. Speed=10.152000m/h.</desc>
<speed>2.820000</speed>
</trkpt>
<trkpt lat="43.148273" lon="19.236380">
<ele>1335.3</ele>
<time>2012-05-01T16:32:39Z</time>
<desc>lat.=43.148273, lon.=19.236380, Alt.=1340.079102m. Speed=12.780000m/h.</desc>
<speed>3.550000</speed>
</trkpt>
<trkpt lat="43.148354" lon="19.237497">
<ele>1333.4</ele>
<time>2012-05-01T16:32:59Z</time>
<desc>lat.=43.148354, lon.=19.237497, Alt.=1340.797852m. Speed=18.972000m/h.</desc>
<speed>5.270000</speed>
</trkpt>
<trkpt lat="43.147915" lon="19.239632">
<ele>1351.3</ele>
<time>2012-05-01T16:33:34Z</time>
<desc>lat.=43.147915, lon.=19.239632, Alt.=1342.610352m. Speed=15.624000m/h.</desc>
<speed>4.340000</speed>
</trkpt>
<trkpt lat="43.148132" lon="19.240974">
<ele>1358.9</ele>
<time>2012-05-01T16:33:59Z</time>
<desc>lat.=43.148132, lon.=19.240974, Alt.=1355.016602m. Speed=12.996000m/h.</desc>
<speed>3.610000</speed>
</trkpt>
<trkpt lat="43.148628" lon="19.242079">
<ele>1345.5</ele>
<time>2012-05-01T16:34:29Z</time>
<desc>lat.=43.148628, lon.=19.242079, Alt.=1379.829102m. Speed=12.600000m/h.</desc>
<speed>3.500000</speed>
</trkpt>
<trkpt lat="43.148209" lon="19.243805">
<ele>1356.5</ele>
<time>2012-05-01T16:34:54Z</time>
<desc>lat.=43.148209, lon.=19.243805, Alt.=1401.735352m. Speed=3.924000m/h.</desc>
<speed>1.090000</speed>
</trkpt>
<trkpt lat="43.148239" lon="19.245874">
<ele>1322.3</ele>
<time>2012-05-01T16:35:19Z</time>
<desc>lat.=43.148239, lon.=19.245874, Alt.=1425.297852m. Speed=19.332001m/h.</desc>
<speed>5.370000</speed>
</trkpt>
<trkpt lat="43.149143" lon="19.247791">
<ele>1323.0</ele>
<time>2012-05-01T16:35:49Z</time>
<desc>lat.=43.149143, lon.=19.247791, Alt.=1447.297852m. Speed=20.124001m/h.</desc>
<speed>5.590000</speed>
</trkpt>
<trkpt lat="43.148628" lon="19.249487">
<ele>1347.6</ele>
<time>2012-05-01T16:35:54Z</time>
<desc>lat.=43.148628, lon.=19.249487, Alt.=1474.766602m. Speed=22.788000m/h.</desc>
<speed>6.330000</speed>
</trkpt>
<trkpt lat="43.149925" lon="19.250532">
<ele>1349.5</ele>
<time>2012-05-01T16:36:24Z</time>
<desc>lat.=43.149925, lon.=19.250532, Alt.=1441.297852m. Speed=17.568001m/h.</desc>
<speed>4.880000</speed>
</trkpt>
<trkpt lat="43.150093" lon="19.251619">
<ele>1348.3</ele>
<time>2012-05-01T16:36:39Z</time>
<desc>lat.=43.150093, lon.=19.251619, Alt.=1425.016602m. Speed=22.176001m/h.</desc>
<speed>6.160000</speed>
</trkpt>
<trkpt lat="43.149960" lon="19.252476">
<ele>1353.1</ele>
<time>2012-05-01T16:36:54Z</time>
<desc>lat.=43.149960, lon.=19.252476, Alt.=1412.422852m. Speed=21.636000m/h.</desc>
<speed>6.010000</speed>
</trkpt>
<trkpt lat="43.150005" lon="19.252802">
<ele>1348.7</ele>
<time>2012-05-01T16:36:59Z</time>
<desc>lat.=43.150005, lon.=19.252802, Alt.=1403.141602m. Speed=12.888000m/h.</desc>
<speed>3.580000</speed>
</trkpt>
<trkpt lat="43.150173" lon="19.252840">
<ele>1340.3</ele>
<time>2012-05-01T16:37:14Z</time>
<desc>lat.=43.150173, lon.=19.252840, Alt.=1388.891602m. Speed=0.576000m/h.</desc>
<speed>0.160000</speed>
</trkpt>
<trkpt lat="43.150009" lon="19.253119">
<ele>1345.9</ele>
<time>2012-05-01T16:38:14Z</time>
<desc>lat.=43.150009, lon.=19.253119, Alt.=1365.016602m. Speed=0.108000m/h.</desc>
<speed>0.030000</speed>
</trkpt>
<trkpt lat="43.150627" lon="19.254194">
<ele>1317.8</ele>
<time>2012-05-01T16:38:49Z</time>
<desc>lat.=43.150627, lon.=19.254194, Alt.=1347.391602m. Speed=21.600000m/h.</desc>
<speed>6.000000</speed>
</trkpt>
<trkpt lat="43.150764" lon="19.255718">
<ele>1306.0</ele>
<time>2012-05-01T16:39:04Z</time>
<desc>lat.=43.150764, lon.=19.255718, Alt.=1334.735352m. Speed=40.284000m/h.</desc>
<speed>11.190000</speed>
</trkpt>
<trkpt lat="43.151051" lon="19.256346">
<ele>1305.5</ele>
<time>2012-05-01T16:39:09Z</time>
<desc>lat.=43.151051, lon.=19.256346, Alt.=1331.454102m. Speed=44.820000m/h.</desc>
<speed>12.450000</speed>
</trkpt>
<trkpt lat="43.151550" lon="19.256771">
<ele>1304.5</ele>
<time>2012-05-01T16:39:14Z</time>
<desc>lat.=43.151550, lon.=19.256771, Alt.=1328.954102m. Speed=46.835999m/h.</desc>
<speed>13.010000</speed>
</trkpt>
<trkpt lat="43.152248" lon="19.258173">
<ele>1291.3</ele>
<time>2012-05-01T16:39:24Z</time>
<desc>lat.=43.152248, lon.=19.258173, Alt.=1321.797852m. Speed=46.188000m/h.</desc>
<speed>12.830000</speed>
</trkpt>
<trkpt lat="43.152798" lon="19.258837">
<ele>1286.8</ele>
<time>2012-05-01T16:39:34Z</time>
<desc>lat.=43.152798, lon.=19.258837, Alt.=1313.422852m. Speed=19.836000m/h.</desc>
<speed>5.510000</speed>
</trkpt>
<trkpt lat="43.152309" lon="19.258736">
<ele>1284.5</ele>
<time>2012-05-01T16:39:44Z</time>
<desc>lat.=43.152309, lon.=19.258736, Alt.=1305.766602m. Speed=27.719999m/h.</desc>
<speed>7.700000</speed>
</trkpt>
<trkpt lat="43.151726" lon="19.257896">
<ele>1278.9</ele>
<time>2012-05-01T16:39:54Z</time>
<desc>lat.=43.151726, lon.=19.257896, Alt.=1298.735352m. Speed=38.520000m/h.</desc>
<speed>10.700000</speed>
</trkpt>
<trkpt lat="43.150280" lon="19.256380">
<ele>1276.6</ele>
<time>2012-05-01T16:40:14Z</time>
<desc>lat.=43.150280, lon.=19.256380, Alt.=1285.172852m. Speed=3.780000m/h.</desc>
<speed>1.050000</speed>
</trkpt>
<trkpt lat="43.150372" lon="19.257090">
<ele>1263.0</ele>
<time>2012-05-01T16:40:29Z</time>
<desc>lat.=43.150372, lon.=19.257090, Alt.=1278.204102m. Speed=20.736000m/h.</desc>
<speed>5.760000</speed>
</trkpt>
<trkpt lat="43.151108" lon="19.258459">
<ele>1243.8</ele>
<time>2012-05-01T16:40:44Z</time>
<desc>lat.=43.151108, lon.=19.258459, Alt.=1272.422852m. Speed=39.924000m/h.</desc>
<speed>11.090000</speed>
</trkpt>
<trkpt lat="43.151539" lon="19.259924">
<ele>1236.6</ele>
<time>2012-05-01T16:40:54Z</time>
<desc>lat.=43.151539, lon.=19.259924, Alt.=1266.079102m. Speed=42.840000m/h.</desc>
<speed>11.900000</speed>
</trkpt>
<trkpt lat="43.151886" lon="19.260565">
<ele>1232.7</ele>
<time>2012-05-01T16:40:59Z</time>
<desc>lat.=43.151886, lon.=19.260565, Alt.=1262.954102m. Speed=47.987999m/h.</desc>
<speed>13.330000</speed>
</trkpt>
<trkpt lat="43.152409" lon="19.261179">
<ele>1232.9</ele>
<time>2012-05-01T16:41:04Z</time>
<desc>lat.=43.152409, lon.=19.261179, Alt.=1260.110352m. Speed=49.608002m/h.</desc>
<speed>13.780000</speed>
</trkpt>
<trkpt lat="43.153465" lon="19.261921">
<ele>1247.2</ele>
<time>2012-05-01T16:41:14Z</time>
<desc>lat.=43.153465, lon.=19.261921, Alt.=1256.454102m. Speed=44.495998m/h.</desc>
<speed>12.360000</speed>
</trkpt>
<trkpt lat="43.153584" lon="19.262522">
<ele>1232.8</ele>
<time>2012-05-01T16:41:19Z</time>
<desc>lat.=43.153584, lon.=19.262522, Alt.=1254.829102m. Speed=38.771999m/h.</desc>
<speed>10.770000</speed>
</trkpt>
<trkpt lat="43.153412" lon="19.263111">
<ele>1229.8</ele>
<time>2012-05-01T16:41:24Z</time>
<desc>lat.=43.153412, lon.=19.263111, Alt.=1254.047852m. Speed=38.304001m/h.</desc>
<speed>10.640000</speed>
</trkpt>
<trkpt lat="43.152977" lon="19.263046">
<ele>1229.0</ele>
<time>2012-05-01T16:41:29Z</time>
<desc>lat.=43.152977, lon.=19.263046, Alt.=1254.047852m. Speed=23.364000m/h.</desc>
<speed>6.490000</speed>
</trkpt>
<trkpt lat="43.149536" lon="19.264277">
<ele>1214.5</ele>
<time>2012-05-01T16:41:54Z</time>
<desc>lat.=43.149536, lon.=19.264277, Alt.=1262.204102m. Speed=57.528000m/h.</desc>
<speed>15.980000</speed>
</trkpt>
<trkpt lat="43.149708" lon="19.265074">
<ele>1203.7</ele>
<time>2012-05-01T16:41:59Z</time>
<desc>lat.=43.149708, lon.=19.265074, Alt.=1282.422852m. Speed=54.576000m/h.</desc>
<speed>15.160000</speed>
</trkpt>
<trkpt lat="43.149075" lon="19.268538">
<ele>1167.8</ele>
<time>2012-05-01T16:42:19Z</time>
<desc>lat.=43.149075, lon.=19.268538, Alt.=1278.766602m. Speed=62.675999m/h.</desc>
<speed>17.410000</speed>
</trkpt>
<trkpt lat="43.148621" lon="19.269087">
<ele>1148.7</ele>
<time>2012-05-01T16:42:24Z</time>
<desc>lat.=43.148621, lon.=19.269087, Alt.=1276.547852m. Speed=54.360001m/h.</desc>
<speed>15.100000</speed>
</trkpt>
<trkpt lat="43.148060" lon="19.269150">
<ele>1136.1</ele>
<time>2012-05-01T16:42:29Z</time>
<desc>lat.=43.148060, lon.=19.269150, Alt.=1260.329102m. Speed=50.580002m/h.</desc>
<speed>14.050001</speed>
</trkpt>
<trkpt lat="43.147579" lon="19.268269">
<ele>1160.3</ele>
<time>2012-05-01T16:42:39Z</time>
<desc>lat.=43.147579, lon.=19.268269, Alt.=1245.329102m. Speed=25.632000m/h.</desc>
<speed>7.120000</speed>
</trkpt>
<trkpt lat="43.147648" lon="19.268654">
<ele>1144.0</ele>
<time>2012-05-01T16:42:44Z</time>
<desc>lat.=43.147648, lon.=19.268654, Alt.=1226.829102m. Speed=26.172001m/h.</desc>
<speed>7.270000</speed>
</trkpt>
<trkpt lat="43.148281" lon="19.269403">
<ele>1133.2</ele>
<time>2012-05-01T16:42:54Z</time>
<desc>lat.=43.148281, lon.=19.269403, Alt.=1207.047852m. Speed=36.647999m/h.</desc>
<speed>10.180000</speed>
</trkpt>
<trkpt lat="43.148781" lon="19.269489">
<ele>1139.3</ele>
<time>2012-05-01T16:42:59Z</time>
<desc>lat.=43.148781, lon.=19.269489, Alt.=1194.360352m. Speed=42.695999m/h.</desc>
<speed>11.860000</speed>
</trkpt>
<trkpt lat="43.149796" lon="19.268885">
<ele>1146.5</ele>
<time>2012-05-01T16:43:09Z</time>
<desc>lat.=43.149796, lon.=19.268885, Alt.=1182.516602m. Speed=39.888000m/h.</desc>
<speed>11.080000</speed>
</trkpt>
<trkpt lat="43.150467" lon="19.267801">
<ele>1146.0</ele>
<time>2012-05-01T16:43:59Z</time>
<desc>lat.=43.150467, lon.=19.267801, Alt.=1151.891602m. Speed=0.108000m/h.</desc>
<speed>0.030000</speed>
</trkpt>
<trkpt lat="43.150303" lon="19.269627">
<ele>1113.6</ele>
<time>2012-05-01T16:44:34Z</time>
<desc>lat.=43.150303, lon.=19.269627, Alt.=1136.610352m. Speed=21.636000m/h.</desc>
<speed>6.010000</speed>
</trkpt>
<trkpt lat="43.149803" lon="19.270298">
<ele>1098.0</ele>
<time>2012-05-01T16:44:59Z</time>
<desc>lat.=43.149803, lon.=19.270298, Alt.=1121.954102m. Speed=7.056000m/h.</desc>
<speed>1.960000</speed>
</trkpt>
<trkpt lat="43.150249" lon="19.271648">
<ele>1075.9</ele>
<time>2012-05-01T16:45:19Z</time>
<desc>lat.=43.150249, lon.=19.271648, Alt.=1101.954102m. Speed=23.364000m/h.</desc>
<speed>6.490000</speed>
</trkpt>
<trkpt lat="43.150318" lon="19.272615">
<ele>1062.9</ele>
<time>2012-05-01T16:45:34Z</time>
<desc>lat.=43.150318, lon.=19.272615, Alt.=1084.829102m. Speed=15.300000m/h.</desc>
<speed>4.250000</speed>
</trkpt>
<trkpt lat="43.149574" lon="19.272821">
<ele>1051.6</ele>
<time>2012-05-01T16:45:49Z</time>
<desc>lat.=43.149574, lon.=19.272821, Alt.=1066.047852m. Speed=24.552000m/h.</desc>
<speed>6.820000</speed>
</trkpt>
<trkpt lat="43.148285" lon="19.274250">
<ele>1041.9</ele>
<time>2012-05-01T16:46:14Z</time>
<desc>lat.=43.148285, lon.=19.274250, Alt.=1051.641602m. Speed=24.768000m/h.</desc>
<speed>6.880000</speed>
</trkpt>
<trkpt lat="43.148109" lon="19.275013">
<ele>1041.7</ele>
<time>2012-05-01T16:46:24Z</time>
<desc>lat.=43.148109, lon.=19.275013, Alt.=1049.110352m. Speed=26.459999m/h.</desc>
<speed>7.350000</speed>
</trkpt>
<trkpt lat="43.147728" lon="19.275583">
<ele>1046.8</ele>
<time>2012-05-01T16:46:34Z</time>
<desc>lat.=43.147728, lon.=19.275583, Alt.=1048.735352m. Speed=17.820000m/h.</desc>
<speed>4.950000</speed>
</trkpt>
<trkpt lat="43.147602" lon="19.276331">
<ele>1047.0</ele>
<time>2012-05-01T16:46:49Z</time>
<desc>lat.=43.147602, lon.=19.276331, Alt.=1048.797852m. Speed=15.336000m/h.</desc>
<speed>4.260000</speed>
</trkpt>
<trkpt lat="43.147839" lon="19.276838">
<ele>1036.0</ele>
<time>2012-05-01T16:46:59Z</time>
<desc>lat.=43.147839, lon.=19.276838, Alt.=1043.454102m. Speed=20.952000m/h.</desc>
<speed>5.820000</speed>
</trkpt>
<trkpt lat="43.148094" lon="19.276810">
<ele>1026.3</ele>
<time>2012-05-01T16:47:04Z</time>
<desc>lat.=43.148094, lon.=19.276810, Alt.=1037.391602m. Speed=19.115999m/h.</desc>
<speed>5.310000</speed>
</trkpt>
<trkpt lat="43.148384" lon="19.277143">
<ele>1019.1</ele>
<time>2012-05-01T16:47:14Z</time>
<desc>lat.=43.148384, lon.=19.277143, Alt.=1028.516602m. Speed=9.648000m/h.</desc>
<speed>2.680000</speed>
</trkpt>
<trkpt lat="43.148571" lon="19.275841">
<ele>1006.6</ele>
<time>2012-05-01T16:47:34Z</time>
<desc>lat.=43.148571, lon.=19.275841, Alt.=1012.508301m. Speed=24.983999m/h.</desc>
<speed>6.940000</speed>
</trkpt>
<trkpt lat="43.149368" lon="19.275311">
<ele>998.6</ele>
<time>2012-05-01T16:47:49Z</time>
<desc>lat.=43.149368, lon.=19.275311, Alt.=1010.602051m. Speed=24.191999m/h.</desc>
<speed>6.720000</speed>
</trkpt>
<trkpt lat="43.149860" lon="19.275370">
<ele>993.5</ele>
<time>2012-05-01T16:49:14Z</time>
<desc>lat.=43.149860, lon.=19.275370, Alt.=1007.336426m. Speed=11.268000m/h.</desc>
<speed>3.130000</speed>
</trkpt>
<trkpt lat="43.150032" lon="19.275642">
<ele>986.1</ele>
<time>2012-05-01T16:49:24Z</time>
<desc>lat.=43.150032, lon.=19.275642, Alt.=1007.070801m. Speed=9.324000m/h.</desc>
<speed>2.590000</speed>
</trkpt>
<trkpt lat="43.149815" lon="19.276457">
<ele>977.8</ele>
<time>2012-05-01T16:49:39Z</time>
<desc>lat.=43.149815, lon.=19.276457, Alt.=999.773926m. Speed=18.108000m/h.</desc>
<speed>5.030000</speed>
</trkpt>
<trkpt lat="43.150131" lon="19.279364">
<ele>952.2</ele>
<time>2012-05-01T16:50:24Z</time>
<desc>lat.=43.150131, lon.=19.279364, Alt.=977.102051m. Speed=31.680000m/h.</desc>
<speed>8.800000</speed>
</trkpt>
<trkpt lat="43.150539" lon="19.281313">
<ele>938.1</ele>
<time>2012-05-01T16:50:39Z</time>
<desc>lat.=43.150539, lon.=19.281313, Alt.=966.836426m. Speed=46.908001m/h.</desc>
<speed>13.030000</speed>
</trkpt>
<trkpt lat="43.150558" lon="19.282143">
<ele>936.1</ele>
<time>2012-05-01T16:50:44Z</time>
<desc>lat.=43.150558, lon.=19.282143, Alt.=963.117676m. Speed=48.672001m/h.</desc>
<speed>13.520000</speed>
</trkpt>
<trkpt lat="43.150265" lon="19.283970">
<ele>924.6</ele>
<time>2012-05-01T16:50:54Z</time>
<desc>lat.=43.150265, lon.=19.283970, Alt.=952.648926m. Speed=56.591999m/h.</desc>
<speed>15.720000</speed>
</trkpt>
<trkpt lat="43.150436" lon="19.286003">
<ele>907.3</ele>
<time>2012-05-01T16:51:04Z</time>
<desc>lat.=43.150436, lon.=19.286003, Alt.=942.805176m. Speed=55.476002m/h.</desc>
<speed>15.410000</speed>
</trkpt>
<trkpt lat="43.150723" lon="19.287344">
<ele>896.3</ele>
<time>2012-05-01T16:51:14Z</time>
<desc>lat.=43.150723, lon.=19.287344, Alt.=936.602051m. Speed=32.580002m/h.</desc>
<speed>9.050001</speed>
</trkpt>
<trkpt lat="43.150906" lon="19.287127">
<ele>893.2</ele>
<time>2012-05-01T16:51:19Z</time>
<desc>lat.=43.150906, lon.=19.287127, Alt.=935.289551m. Speed=29.448000m/h.</desc>
<speed>8.180000</speed>
</trkpt>
<trkpt lat="43.150650" lon="19.286097">
<ele>893.3</ele>
<time>2012-05-01T16:51:29Z</time>
<desc>lat.=43.150650, lon.=19.286097, Alt.=927.023926m. Speed=38.015999m/h.</desc>
<speed>10.560000</speed>
</trkpt>
<trkpt lat="43.150669" lon="19.284687">
<ele>886.7</ele>
<time>2012-05-01T16:51:39Z</time>
<desc>lat.=43.150669, lon.=19.284687, Alt.=918.164551m. Speed=44.891998m/h.</desc>
<speed>12.470000</speed>
</trkpt>
<trkpt lat="43.150787" lon="19.283901">
<ele>889.0</ele>
<time>2012-05-01T16:51:44Z</time>
<desc>lat.=43.150787, lon.=19.283901, Alt.=912.852051m. Speed=50.220001m/h.</desc>
<speed>13.950000</speed>
</trkpt>
<trkpt lat="43.151360" lon="19.282475">
<ele>877.3</ele>
<time>2012-05-01T16:51:54Z</time>
<desc>lat.=43.151360, lon.=19.282475, Alt.=904.508301m. Speed=45.144001m/h.</desc>
<speed>12.540000</speed>
</trkpt>
<trkpt lat="43.151283" lon="19.280859">
<ele>872.9</ele>
<time>2012-05-01T16:52:04Z</time>
<desc>lat.=43.151283, lon.=19.280859, Alt.=896.117676m. Speed=48.348000m/h.</desc>
<speed>13.430000</speed>
</trkpt>
<trkpt lat="43.151466" lon="19.279179">
<ele>861.7</ele>
<time>2012-05-01T16:52:14Z</time>
<desc>lat.=43.151466, lon.=19.279179, Alt.=883.523926m. Speed=48.852001m/h.</desc>
<speed>13.570000</speed>
</trkpt>
<trkpt lat="43.151821" lon="19.277668">
<ele>846.6</ele>
<time>2012-05-01T16:52:24Z</time>
<desc>lat.=43.151821, lon.=19.277668, Alt.=876.461426m. Speed=41.400002m/h.</desc>
<speed>11.500000</speed>
</trkpt>
<trkpt lat="43.152107" lon="19.277287">
<ele>843.6</ele>
<time>2012-05-01T16:52:29Z</time>
<desc>lat.=43.152107, lon.=19.277287, Alt.=873.367676m. Speed=25.164000m/h.</desc>
<speed>6.990000</speed>
</trkpt>
<trkpt lat="43.152222" lon="19.277466">
<ele>836.7</ele>
<time>2012-05-01T16:52:34Z</time>
<desc>lat.=43.152222, lon.=19.277466, Alt.=871.273926m. Speed=23.976000m/h.</desc>
<speed>6.660000</speed>
</trkpt>
<trkpt lat="43.151814" lon="19.278074">
<ele>841.3</ele>
<time>2012-05-01T16:52:44Z</time>
<desc>lat.=43.151814, lon.=19.278074, Alt.=869.836426m. Speed=26.351999m/h.</desc>
<speed>7.320000</speed>
</trkpt>
<trkpt lat="43.151653" lon="19.279051">
<ele>845.5</ele>
<time>2012-05-01T16:52:54Z</time>
<desc>lat.=43.151653, lon.=19.279051, Alt.=864.461426m. Speed=34.380001m/h.</desc>
<speed>9.550000</speed>
</trkpt>
<trkpt lat="43.151546" lon="19.280764">
<ele>848.1</ele>
<time>2012-05-01T16:53:09Z</time>
<desc>lat.=43.151546, lon.=19.280764, Alt.=860.180176m. Speed=32.472000m/h.</desc>
<speed>9.020000</speed>
</trkpt>
<trkpt lat="43.151852" lon="19.282373">
<ele>844.6</ele>
<time>2012-05-01T16:53:24Z</time>
<desc>lat.=43.151852, lon.=19.282373, Alt.=859.117676m. Speed=33.768002m/h.</desc>
<speed>9.380000</speed>
</trkpt>
<trkpt lat="43.151470" lon="19.285374">
<ele>828.3</ele>
<time>2012-05-01T16:53:49Z</time>
<desc>lat.=43.151470, lon.=19.285374, Alt.=844.602051m. Speed=37.296001m/h.</desc>
<speed>10.360000</speed>
</trkpt>
<trkpt lat="43.152081" lon="19.287775">
<ele>807.7</ele>
<time>2012-05-01T16:54:09Z</time>
<desc>lat.=43.152081, lon.=19.287775, Alt.=831.836426m. Speed=39.383999m/h.</desc>
<speed>10.940000</speed>
</trkpt>
<trkpt lat="43.151237" lon="19.289375">
<ele>797.3</ele>
<time>2012-05-01T16:54:24Z</time>
<desc>lat.=43.151237, lon.=19.289375, Alt.=821.117676m. Speed=37.619999m/h.</desc>
<speed>10.450000</speed>
</trkpt>
<trkpt lat="43.150780" lon="19.289640">
<ele>789.3</ele>
<time>2012-05-01T16:54:29Z</time>
<desc>lat.=43.150780, lon.=19.289640, Alt.=818.555176m. Speed=42.840000m/h.</desc>
<speed>11.900000</speed>
</trkpt>
<trkpt lat="43.149300" lon="19.289495">
<ele>784.3</ele>
<time>2012-05-01T16:54:44Z</time>
<desc>lat.=43.149300, lon.=19.289495, Alt.=805.758301m. Speed=45.360001m/h.</desc>
<speed>12.600000</speed>
</trkpt>
<trkpt lat="43.148914" lon="19.289946">
<ele>784.1</ele>
<time>2012-05-01T16:54:49Z</time>
<desc>lat.=43.148914, lon.=19.289946, Alt.=799.992676m. Speed=38.268002m/h.</desc>
<speed>10.630000</speed>
</trkpt>
<trkpt lat="43.148506" lon="19.292002">
<ele>771.2</ele>
<time>2012-05-01T16:55:09Z</time>
<desc>lat.=43.148506, lon.=19.292002, Alt.=789.695801m. Speed=16.308001m/h.</desc>
<speed>4.530000</speed>
</trkpt>
<trkpt lat="43.148273" lon="19.292181">
<ele>767.4</ele>
<time>2012-05-01T16:55:24Z</time>
<desc>lat.=43.148273, lon.=19.292181, Alt.=785.430176m. Speed=6.840000m/h.</desc>
<speed>1.900000</speed>
</trkpt>
<trkpt lat="43.148380" lon="19.292250">
<ele>766.4</ele>
<time>2012-05-01T16:55:39Z</time>
<desc>lat.=43.148380, lon.=19.292250, Alt.=784.430176m. Speed=0.432000m/h.</desc>
<speed>0.120000</speed>
</trkpt>
<trkpt lat="43.148193" lon="19.292194">
<ele>767.0</ele>
<time>2012-05-01T16:56:54Z</time>
<desc>lat.=43.148193, lon.=19.292194, Alt.=785.055176m. Speed=5.400000m/h.</desc>
<speed>1.500000</speed>
</trkpt>
<trkpt lat="43.148540" lon="19.292234">
<ele>766.8</ele>
<time>2012-05-01T16:57:59Z</time>
<desc>lat.=43.148540, lon.=19.292234, Alt.=785.195801m. Speed=0.720000m/h.</desc>
<speed>0.200000</speed>
</trkpt>
<trkpt lat="43.149101" lon="19.291851">
<ele>771.6</ele>
<time>2012-05-01T17:01:09Z</time>
<desc>lat.=43.149101, lon.=19.291851, Alt.=787.477051m. Speed=2.412000m/h.</desc>
<speed>0.670000</speed>
</trkpt>
<trkpt lat="43.148708" lon="19.292130">
<ele>768.9</ele>
<time>2012-05-01T17:01:29Z</time>
<desc>lat.=43.148708, lon.=19.292130, Alt.=786.836426m. Speed=4.176000m/h.</desc>
<speed>1.160000</speed>
</trkpt>
<trkpt lat="43.148647" lon="19.292374">
<ele>763.6</ele>
<time>2012-05-01T17:01:39Z</time>
<desc>lat.=43.148647, lon.=19.292374, Alt.=787.258301m. Speed=17.856001m/h.</desc>
<speed>4.960000</speed>
</trkpt>
<trkpt lat="43.149082" lon="19.293516">
<ele>721.8</ele>
<time>2012-05-01T17:01:54Z</time>
<desc>lat.=43.149082, lon.=19.293516, Alt.=783.477051m. Speed=25.667999m/h.</desc>
<speed>7.130000</speed>
</trkpt>
<trkpt lat="43.149837" lon="19.294704">
<ele>713.6</ele>
<time>2012-05-01T17:05:24Z</time>
<desc>lat.=43.149837, lon.=19.294704, Alt.=777.445801m. Speed=0.036000m/h.</desc>
<speed>0.010000</speed>
</trkpt>
<trkpt lat="43.151012" lon="19.295967">
<ele>754.9</ele>
<time>2012-05-01T17:12:29Z</time>
<desc>lat.=43.151012, lon.=19.295967, Alt.=776.789551m. Speed=6.372000m/h.</desc>
<speed>1.770000</speed>
</trkpt>
<trkpt lat="43.152687" lon="19.296246">
<ele>790.0</ele>
<time>2012-05-01T17:13:59Z</time>
<desc>lat.=43.152687, lon.=19.296246, Alt.=796.555176m. Speed=5.868000m/h.</desc>
<speed>1.630000</speed>
</trkpt>
<trkpt lat="43.154171" lon="19.295527">
<ele>795.9</ele>
<time>2012-05-01T17:15:29Z</time>
<desc>lat.=43.154171, lon.=19.295527, Alt.=806.461426m. Speed=10.044000m/h.</desc>
<speed>2.790000</speed>
</trkpt>
<trkpt lat="43.155411" lon="19.296267">
<ele>809.3</ele>
<time>2012-05-01T17:16:44Z</time>
<desc>lat.=43.155411, lon.=19.296267, Alt.=812.289551m. Speed=6.984000m/h.</desc>
<speed>1.940000</speed>
</trkpt>
<trkpt lat="43.156345" lon="19.296463">
<ele>819.9</ele>
<time>2012-05-01T17:17:34Z</time>
<desc>lat.=43.156345, lon.=19.296463, Alt.=820.945801m. Speed=8.028000m/h.</desc>
<speed>2.230000</speed>
</trkpt>
<trkpt lat="43.157223" lon="19.296070">
<ele>814.6</ele>
<time>2012-05-01T17:18:24Z</time>
<desc>lat.=43.157223, lon.=19.296070, Alt.=827.336426m. Speed=5.364000m/h.</desc>
<speed>1.490000</speed>
</trkpt>
<trkpt lat="43.158031" lon="19.294235">
<ele>830.4</ele>
<time>2012-05-01T17:19:49Z</time>
<desc>lat.=43.158031, lon.=19.294235, Alt.=835.945801m. Speed=9.144000m/h.</desc>
<speed>2.540000</speed>
</trkpt>
<trkpt lat="43.158489" lon="19.293976">
<ele>839.0</ele>
<time>2012-05-01T17:20:09Z</time>
<desc>lat.=43.158489, lon.=19.293976, Alt.=841.773926m. Speed=10.296000m/h.</desc>
<speed>2.860000</speed>
</trkpt>
<trkpt lat="43.158913" lon="19.293995">
<ele>843.7</ele>
<time>2012-05-01T17:20:29Z</time>
<desc>lat.=43.158913, lon.=19.293995, Alt.=845.961426m. Speed=2.844000m/h.</desc>
<speed>0.790000</speed>
</trkpt>
<trkpt lat="43.158978" lon="19.292610">
<ele>829.8</ele>
<time>2012-05-01T17:22:04Z</time>
<desc>lat.=43.158978, lon.=19.292610, Alt.=835.930176m. Speed=0.180000m/h.</desc>
<speed>0.050000</speed>
</trkpt>
</trkseg>
</trk>
</gpx>